<?xml version="1.0" encoding="UTF-8" standalone="no" ?>
<gpx xmlns="http://www.topografix.com/GPX/1/1" xmlns:xsi="http://www.w3.org/2001/XMLSchema-instance" xsi:schemaLocation="http://www.topografix.com/GPX/1/1 http://www.topografix.com/GPX/1/1/gpx.xsd" version="1.1" creator="VisuGPX - https://www.visugpx.com">
  <metadata>
    <name>thenac</name>
    <desc><![CDATA[temps ensoleiller]]></desc>
  </metadata>
  <wpt lat="44.85829" lon="0.50388">
    <ele>30.89</ele>
    <name><![CDATA[MAISON]]></name>
  </wpt>
  <trk>
    <name><![CDATA[ACTIVE LOG: 12 JAN 2014 13:50]]></name>
    <trkseg>
      <trkpt lat="44.89431" lon="0.52713">
        <ele>92.42</ele>
        <time>2014-01-12T12:50:41Z</time>
      </trkpt>
      <trkpt lat="44.89427" lon="0.52712">
        <ele>97.23</ele>
        <time>2014-01-12T12:50:44Z</time>
      </trkpt>
      <trkpt lat="44.89421" lon="0.52711">
        <ele>92.9</ele>
        <time>2014-01-12T12:50:49Z</time>
      </trkpt>
      <trkpt lat="44.8942" lon="0.52711">
        <ele>95.79</ele>
        <time>2014-01-12T12:50:50Z</time>
      </trkpt>
      <trkpt lat="44.89403" lon="0.52703">
        <ele>94.35</ele>
        <time>2014-01-12T12:51:04Z</time>
      </trkpt>
      <trkpt lat="44.89396" lon="0.52699">
        <ele>94.35</ele>
        <time>2014-01-12T12:51:09Z</time>
      </trkpt>
      <trkpt lat="44.8938" lon="0.52694">
        <ele>93.39</ele>
        <time>2014-01-12T12:51:21Z</time>
      </trkpt>
      <trkpt lat="44.89378" lon="0.52694">
        <ele>92.9</ele>
        <time>2014-01-12T12:51:22Z</time>
      </trkpt>
      <trkpt lat="44.89371" lon="0.52688">
        <ele>90.02</ele>
        <time>2014-01-12T12:51:28Z</time>
      </trkpt>
      <trkpt lat="44.89354" lon="0.52682">
        <ele>90.5</ele>
        <time>2014-01-12T12:51:43Z</time>
      </trkpt>
      <trkpt lat="44.89341" lon="0.5268">
        <ele>87.14</ele>
        <time>2014-01-12T12:51:52Z</time>
      </trkpt>
      <trkpt lat="44.89334" lon="0.5268">
        <ele>86.66</ele>
        <time>2014-01-12T12:51:56Z</time>
      </trkpt>
      <trkpt lat="44.89311" lon="0.52666">
        <ele>84.73</ele>
        <time>2014-01-12T12:52:10Z</time>
      </trkpt>
      <trkpt lat="44.89299" lon="0.52659">
        <ele>82.81</ele>
        <time>2014-01-12T12:52:22Z</time>
      </trkpt>
      <trkpt lat="44.8928" lon="0.52646">
        <ele>80.41</ele>
        <time>2014-01-12T12:52:36Z</time>
      </trkpt>
      <trkpt lat="44.89257" lon="0.52644">
        <ele>77.52</ele>
        <time>2014-01-12T12:52:52Z</time>
      </trkpt>
      <trkpt lat="44.89239" lon="0.52644">
        <ele>76.08</ele>
        <time>2014-01-12T12:53:05Z</time>
      </trkpt>
      <trkpt lat="44.89225" lon="0.52644">
        <ele>73.2</ele>
        <time>2014-01-12T12:53:16Z</time>
      </trkpt>
      <trkpt lat="44.89203" lon="0.52643">
        <ele>71.27</ele>
        <time>2014-01-12T12:53:34Z</time>
      </trkpt>
      <trkpt lat="44.89186" lon="0.52641">
        <ele>69.83</ele>
        <time>2014-01-12T12:53:48Z</time>
      </trkpt>
      <trkpt lat="44.89171" lon="0.52637">
        <ele>67.91</ele>
        <time>2014-01-12T12:54:03Z</time>
      </trkpt>
      <trkpt lat="44.89157" lon="0.52634">
        <ele>65.51</ele>
        <time>2014-01-12T12:54:14Z</time>
      </trkpt>
      <trkpt lat="44.89137" lon="0.52628">
        <ele>64.07</ele>
        <time>2014-01-12T12:54:28Z</time>
      </trkpt>
      <trkpt lat="44.89121" lon="0.52626">
        <ele>62.62</ele>
        <time>2014-01-12T12:54:40Z</time>
      </trkpt>
      <trkpt lat="44.89109" lon="0.52625">
        <ele>59.74</ele>
        <time>2014-01-12T12:54:51Z</time>
      </trkpt>
      <trkpt lat="44.89102" lon="0.52625">
        <ele>59.26</ele>
        <time>2014-01-12T12:54:56Z</time>
      </trkpt>
      <trkpt lat="44.89088" lon="0.52625">
        <ele>58.78</ele>
        <time>2014-01-12T12:55:07Z</time>
      </trkpt>
      <trkpt lat="44.89071" lon="0.52627">
        <ele>55.41</ele>
        <time>2014-01-12T12:55:24Z</time>
      </trkpt>
      <trkpt lat="44.89061" lon="0.52626">
        <ele>54.93</ele>
        <time>2014-01-12T12:55:32Z</time>
      </trkpt>
      <trkpt lat="44.89057" lon="0.52623">
        <ele>53.49</ele>
        <time>2014-01-12T12:55:36Z</time>
      </trkpt>
      <trkpt lat="44.89053" lon="0.52624">
        <ele>53.97</ele>
        <time>2014-01-12T12:55:44Z</time>
      </trkpt>
      <trkpt lat="44.89052" lon="0.52628">
        <ele>53.49</ele>
        <time>2014-01-12T12:55:48Z</time>
      </trkpt>
      <trkpt lat="44.89048" lon="0.52635">
        <ele>51.57</ele>
        <time>2014-01-12T12:55:54Z</time>
      </trkpt>
      <trkpt lat="44.8904" lon="0.52645">
        <ele>51.09</ele>
        <time>2014-01-12T12:56:04Z</time>
      </trkpt>
      <trkpt lat="44.89028" lon="0.52671">
        <ele>48.2</ele>
        <time>2014-01-12T12:56:22Z</time>
      </trkpt>
      <trkpt lat="44.89018" lon="0.52693">
        <ele>47.72</ele>
        <time>2014-01-12T12:56:36Z</time>
      </trkpt>
      <trkpt lat="44.89011" lon="0.52707">
        <ele>47.24</ele>
        <time>2014-01-12T12:56:45Z</time>
      </trkpt>
      <trkpt lat="44.89001" lon="0.52729">
        <ele>46.76</ele>
        <time>2014-01-12T12:57:00Z</time>
      </trkpt>
      <trkpt lat="44.88987" lon="0.52748">
        <ele>46.28</ele>
        <time>2014-01-12T12:57:14Z</time>
      </trkpt>
      <trkpt lat="44.88982" lon="0.52758">
        <ele>47.24</ele>
        <time>2014-01-12T12:57:22Z</time>
      </trkpt>
      <trkpt lat="44.88967" lon="0.52779">
        <ele>49.16</ele>
        <time>2014-01-12T12:57:39Z</time>
      </trkpt>
      <trkpt lat="44.88964" lon="0.52783">
        <ele>47.72</ele>
        <time>2014-01-12T12:57:45Z</time>
      </trkpt>
      <trkpt lat="44.8896" lon="0.52783">
        <ele>48.68</ele>
        <time>2014-01-12T12:57:49Z</time>
      </trkpt>
      <trkpt lat="44.88944" lon="0.52776">
        <ele>48.2</ele>
        <time>2014-01-12T12:58:01Z</time>
      </trkpt>
      <trkpt lat="44.88939" lon="0.52776">
        <ele>47.24</ele>
        <time>2014-01-12T12:58:05Z</time>
      </trkpt>
      <trkpt lat="44.88927" lon="0.52768">
        <ele>46.76</ele>
        <time>2014-01-12T12:58:17Z</time>
      </trkpt>
      <trkpt lat="44.8891" lon="0.52764">
        <ele>47.24</ele>
        <time>2014-01-12T12:58:28Z</time>
      </trkpt>
      <trkpt lat="44.88908" lon="0.52764">
        <ele>47.24</ele>
        <time>2014-01-12T12:58:30Z</time>
      </trkpt>
      <trkpt lat="44.88891" lon="0.52758">
        <ele>46.28</ele>
        <time>2014-01-12T12:58:45Z</time>
      </trkpt>
      <trkpt lat="44.88856" lon="0.52759">
        <ele>46.28</ele>
        <time>2014-01-12T12:59:12Z</time>
      </trkpt>
      <trkpt lat="44.88826" lon="0.52758">
        <ele>45.8</ele>
        <time>2014-01-12T12:59:34Z</time>
      </trkpt>
      <trkpt lat="44.88808" lon="0.52754">
        <ele>44.36</ele>
        <time>2014-01-12T12:59:50Z</time>
      </trkpt>
      <trkpt lat="44.88803" lon="0.52754">
        <ele>44.84</ele>
        <time>2014-01-12T12:59:54Z</time>
      </trkpt>
      <trkpt lat="44.88799" lon="0.52754">
        <ele>45.32</ele>
        <time>2014-01-12T12:59:58Z</time>
      </trkpt>
      <trkpt lat="44.88773" lon="0.5275">
        <ele>44.84</ele>
        <time>2014-01-12T13:00:17Z</time>
      </trkpt>
      <trkpt lat="44.88743" lon="0.52746">
        <ele>43.88</ele>
        <time>2014-01-12T13:00:37Z</time>
      </trkpt>
      <trkpt lat="44.88722" lon="0.52737">
        <ele>43.88</ele>
        <time>2014-01-12T13:00:54Z</time>
      </trkpt>
      <trkpt lat="44.88699" lon="0.52728">
        <ele>43.4</ele>
        <time>2014-01-12T13:01:11Z</time>
      </trkpt>
      <trkpt lat="44.88686" lon="0.52717">
        <ele>43.88</ele>
        <time>2014-01-12T13:01:24Z</time>
      </trkpt>
      <trkpt lat="44.88668" lon="0.52704">
        <ele>43.88</ele>
        <time>2014-01-12T13:01:39Z</time>
      </trkpt>
      <trkpt lat="44.88659" lon="0.52695">
        <ele>42.92</ele>
        <time>2014-01-12T13:01:47Z</time>
      </trkpt>
      <trkpt lat="44.88649" lon="0.52692">
        <ele>42.92</ele>
        <time>2014-01-12T13:01:59Z</time>
      </trkpt>
      <trkpt lat="44.88645" lon="0.52689">
        <ele>42.92</ele>
        <time>2014-01-12T13:02:21Z</time>
      </trkpt>
      <trkpt lat="44.8865" lon="0.52691">
        <ele>43.88</ele>
        <time>2014-01-12T13:03:52Z</time>
      </trkpt>
      <trkpt lat="44.88641" lon="0.52685">
        <ele>43.4</ele>
        <time>2014-01-12T13:04:25Z</time>
      </trkpt>
      <trkpt lat="44.88623" lon="0.52664">
        <ele>43.4</ele>
        <time>2014-01-12T13:04:38Z</time>
      </trkpt>
      <trkpt lat="44.88607" lon="0.5265">
        <ele>42.92</ele>
        <time>2014-01-12T13:04:55Z</time>
      </trkpt>
      <trkpt lat="44.88594" lon="0.52638">
        <ele>41.95</ele>
        <time>2014-01-12T13:05:08Z</time>
      </trkpt>
      <trkpt lat="44.88579" lon="0.52629">
        <ele>41.95</ele>
        <time>2014-01-12T13:05:21Z</time>
      </trkpt>
      <trkpt lat="44.88578" lon="0.52629">
        <ele>41.95</ele>
        <time>2014-01-12T13:05:22Z</time>
      </trkpt>
      <trkpt lat="44.8856" lon="0.52619">
        <ele>41.47</ele>
        <time>2014-01-12T13:05:37Z</time>
      </trkpt>
      <trkpt lat="44.88558" lon="0.52618">
        <ele>40.51</ele>
        <time>2014-01-12T13:05:39Z</time>
      </trkpt>
      <trkpt lat="44.88544" lon="0.52597">
        <ele>40.51</ele>
        <time>2014-01-12T13:05:57Z</time>
      </trkpt>
      <trkpt lat="44.88542" lon="0.52595">
        <ele>40.03</ele>
        <time>2014-01-12T13:06:01Z</time>
      </trkpt>
      <trkpt lat="44.88524" lon="0.52576">
        <ele>39.55</ele>
        <time>2014-01-12T13:06:18Z</time>
      </trkpt>
      <trkpt lat="44.88507" lon="0.52564">
        <ele>40.03</ele>
        <time>2014-01-12T13:06:34Z</time>
      </trkpt>
      <trkpt lat="44.88491" lon="0.52555">
        <ele>40.03</ele>
        <time>2014-01-12T13:06:47Z</time>
      </trkpt>
      <trkpt lat="44.88476" lon="0.52533">
        <ele>39.55</ele>
        <time>2014-01-12T13:07:03Z</time>
      </trkpt>
      <trkpt lat="44.88458" lon="0.52521">
        <ele>39.55</ele>
        <time>2014-01-12T13:07:18Z</time>
      </trkpt>
      <trkpt lat="44.88454" lon="0.52514">
        <ele>39.55</ele>
        <time>2014-01-12T13:07:34Z</time>
      </trkpt>
      <trkpt lat="44.88461" lon="0.52512">
        <ele>39.55</ele>
        <time>2014-01-12T13:07:50Z</time>
      </trkpt>
      <trkpt lat="44.8846" lon="0.52511">
        <ele>39.07</ele>
        <time>2014-01-12T13:07:56Z</time>
      </trkpt>
      <trkpt lat="44.88433" lon="0.52501">
        <ele>39.55</ele>
        <time>2014-01-12T13:08:14Z</time>
      </trkpt>
      <trkpt lat="44.88421" lon="0.52496">
        <ele>39.07</ele>
        <time>2014-01-12T13:08:26Z</time>
      </trkpt>
      <trkpt lat="44.88399" lon="0.52503">
        <ele>39.55</ele>
        <time>2014-01-12T13:08:43Z</time>
      </trkpt>
      <trkpt lat="44.88393" lon="0.52502">
        <ele>39.55</ele>
        <time>2014-01-12T13:08:49Z</time>
      </trkpt>
      <trkpt lat="44.88377" lon="0.52523">
        <ele>38.59</ele>
        <time>2014-01-12T13:09:08Z</time>
      </trkpt>
      <trkpt lat="44.88363" lon="0.52522">
        <ele>37.63</ele>
        <time>2014-01-12T13:09:20Z</time>
      </trkpt>
      <trkpt lat="44.88361" lon="0.52521">
        <ele>37.15</ele>
        <time>2014-01-12T13:09:24Z</time>
      </trkpt>
      <trkpt lat="44.88341" lon="0.52523">
        <ele>37.15</ele>
        <time>2014-01-12T13:09:41Z</time>
      </trkpt>
      <trkpt lat="44.88328" lon="0.52546">
        <ele>37.15</ele>
        <time>2014-01-12T13:09:58Z</time>
      </trkpt>
      <trkpt lat="44.88322" lon="0.52564">
        <ele>37.15</ele>
        <time>2014-01-12T13:10:10Z</time>
      </trkpt>
      <trkpt lat="44.88322" lon="0.52567">
        <ele>37.15</ele>
        <time>2014-01-12T13:10:12Z</time>
      </trkpt>
      <trkpt lat="44.8832" lon="0.52575">
        <ele>37.15</ele>
        <time>2014-01-12T13:10:18Z</time>
      </trkpt>
      <trkpt lat="44.88317" lon="0.52594">
        <ele>38.11</ele>
        <time>2014-01-12T13:10:31Z</time>
      </trkpt>
      <trkpt lat="44.88315" lon="0.52596">
        <ele>38.11</ele>
        <time>2014-01-12T13:10:34Z</time>
      </trkpt>
      <trkpt lat="44.88314" lon="0.52612">
        <ele>37.15</ele>
        <time>2014-01-12T13:10:44Z</time>
      </trkpt>
      <trkpt lat="44.88312" lon="0.52619">
        <ele>38.11</ele>
        <time>2014-01-12T13:10:49Z</time>
      </trkpt>
      <trkpt lat="44.88305" lon="0.52622">
        <ele>37.15</ele>
        <time>2014-01-12T13:10:59Z</time>
      </trkpt>
      <trkpt lat="44.88297" lon="0.52621">
        <ele>38.11</ele>
        <time>2014-01-12T13:11:06Z</time>
      </trkpt>
      <trkpt lat="44.88288" lon="0.52641">
        <ele>37.63</ele>
        <time>2014-01-12T13:11:20Z</time>
      </trkpt>
      <trkpt lat="44.88271" lon="0.5266">
        <ele>37.63</ele>
        <time>2014-01-12T13:11:37Z</time>
      </trkpt>
      <trkpt lat="44.88272" lon="0.52663">
        <ele>37.63</ele>
        <time>2014-01-12T13:11:47Z</time>
      </trkpt>
      <trkpt lat="44.88261" lon="0.5268">
        <ele>39.07</ele>
        <time>2014-01-12T13:12:27Z</time>
      </trkpt>
      <trkpt lat="44.88246" lon="0.52708">
        <ele>39.07</ele>
        <time>2014-01-12T13:12:46Z</time>
      </trkpt>
      <trkpt lat="44.8823" lon="0.52733">
        <ele>40.51</ele>
        <time>2014-01-12T13:13:05Z</time>
      </trkpt>
      <trkpt lat="44.88225" lon="0.5275">
        <ele>40.03</ele>
        <time>2014-01-12T13:13:16Z</time>
      </trkpt>
      <trkpt lat="44.88223" lon="0.52755">
        <ele>40.51</ele>
        <time>2014-01-12T13:13:19Z</time>
      </trkpt>
      <trkpt lat="44.88213" lon="0.52785">
        <ele>39.07</ele>
        <time>2014-01-12T13:13:37Z</time>
      </trkpt>
      <trkpt lat="44.88206" lon="0.52801">
        <ele>40.51</ele>
        <time>2014-01-12T13:13:49Z</time>
      </trkpt>
      <trkpt lat="44.88205" lon="0.52804">
        <ele>40.03</ele>
        <time>2014-01-12T13:13:51Z</time>
      </trkpt>
      <trkpt lat="44.88198" lon="0.52817">
        <ele>41.47</ele>
        <time>2014-01-12T13:14:00Z</time>
      </trkpt>
      <trkpt lat="44.88191" lon="0.52831">
        <ele>39.07</ele>
        <time>2014-01-12T13:14:11Z</time>
      </trkpt>
      <trkpt lat="44.88191" lon="0.52832">
        <ele>40.99</ele>
        <time>2014-01-12T13:14:13Z</time>
      </trkpt>
      <trkpt lat="44.88188" lon="0.52835">
        <ele>40.51</ele>
        <time>2014-01-12T13:14:25Z</time>
      </trkpt>
      <trkpt lat="44.88181" lon="0.52847">
        <ele>40.51</ele>
        <time>2014-01-12T13:14:37Z</time>
      </trkpt>
      <trkpt lat="44.88168" lon="0.52859">
        <ele>39.55</ele>
        <time>2014-01-12T13:14:49Z</time>
      </trkpt>
      <trkpt lat="44.88163" lon="0.52863">
        <ele>40.03</ele>
        <time>2014-01-12T13:14:54Z</time>
      </trkpt>
      <trkpt lat="44.88148" lon="0.52876">
        <ele>40.03</ele>
        <time>2014-01-12T13:15:09Z</time>
      </trkpt>
      <trkpt lat="44.88141" lon="0.52887">
        <ele>40.03</ele>
        <time>2014-01-12T13:15:22Z</time>
      </trkpt>
      <trkpt lat="44.88133" lon="0.52899">
        <ele>39.55</ele>
        <time>2014-01-12T13:15:35Z</time>
      </trkpt>
      <trkpt lat="44.88126" lon="0.52902">
        <ele>39.55</ele>
        <time>2014-01-12T13:15:47Z</time>
      </trkpt>
      <trkpt lat="44.88127" lon="0.529">
        <ele>40.03</ele>
        <time>2014-01-12T13:16:09Z</time>
      </trkpt>
      <trkpt lat="44.88127" lon="0.52899">
        <ele>39.07</ele>
        <time>2014-01-12T13:16:13Z</time>
      </trkpt>
      <trkpt lat="44.88118" lon="0.5289">
        <ele>38.11</ele>
        <time>2014-01-12T13:16:22Z</time>
      </trkpt>
      <trkpt lat="44.88114" lon="0.52883">
        <ele>39.07</ele>
        <time>2014-01-12T13:16:29Z</time>
      </trkpt>
      <trkpt lat="44.88108" lon="0.52878">
        <ele>38.11</ele>
        <time>2014-01-12T13:16:36Z</time>
      </trkpt>
      <trkpt lat="44.88089" lon="0.52872">
        <ele>38.11</ele>
        <time>2014-01-12T13:16:53Z</time>
      </trkpt>
      <trkpt lat="44.88073" lon="0.52866">
        <ele>37.63</ele>
        <time>2014-01-12T13:17:09Z</time>
      </trkpt>
      <trkpt lat="44.8806" lon="0.52858">
        <ele>37.15</ele>
        <time>2014-01-12T13:17:22Z</time>
      </trkpt>
      <trkpt lat="44.8805" lon="0.52869">
        <ele>37.63</ele>
        <time>2014-01-12T13:17:36Z</time>
      </trkpt>
      <trkpt lat="44.88044" lon="0.52873">
        <ele>37.15</ele>
        <time>2014-01-12T13:17:42Z</time>
      </trkpt>
      <trkpt lat="44.88035" lon="0.52872">
        <ele>36.67</ele>
        <time>2014-01-12T13:17:50Z</time>
      </trkpt>
      <trkpt lat="44.88024" lon="0.52867">
        <ele>37.15</ele>
        <time>2014-01-12T13:18:05Z</time>
      </trkpt>
      <trkpt lat="44.88012" lon="0.52863">
        <ele>37.15</ele>
        <time>2014-01-12T13:18:19Z</time>
      </trkpt>
      <trkpt lat="44.88" lon="0.52856">
        <ele>36.19</ele>
        <time>2014-01-12T13:18:35Z</time>
      </trkpt>
      <trkpt lat="44.87996" lon="0.52852">
        <ele>37.63</ele>
        <time>2014-01-12T13:19:09Z</time>
      </trkpt>
      <trkpt lat="44.87988" lon="0.52849">
        <ele>37.15</ele>
        <time>2014-01-12T13:19:15Z</time>
      </trkpt>
      <trkpt lat="44.87979" lon="0.52848">
        <ele>38.11</ele>
        <time>2014-01-12T13:19:22Z</time>
      </trkpt>
      <trkpt lat="44.87962" lon="0.52842">
        <ele>37.15</ele>
        <time>2014-01-12T13:19:36Z</time>
      </trkpt>
      <trkpt lat="44.87952" lon="0.52841">
        <ele>37.63</ele>
        <time>2014-01-12T13:19:48Z</time>
      </trkpt>
      <trkpt lat="44.87951" lon="0.52841">
        <ele>37.63</ele>
        <time>2014-01-12T13:19:49Z</time>
      </trkpt>
      <trkpt lat="44.87947" lon="0.52842">
        <ele>38.11</ele>
        <time>2014-01-12T13:19:53Z</time>
      </trkpt>
      <trkpt lat="44.87939" lon="0.52843">
        <ele>37.63</ele>
        <time>2014-01-12T13:20:02Z</time>
      </trkpt>
      <trkpt lat="44.87931" lon="0.5285">
        <ele>38.59</ele>
        <time>2014-01-12T13:20:14Z</time>
      </trkpt>
      <trkpt lat="44.87935" lon="0.52853">
        <ele>38.11</ele>
        <time>2014-01-12T13:20:40Z</time>
      </trkpt>
      <trkpt lat="44.87935" lon="0.52854">
        <ele>37.63</ele>
        <time>2014-01-12T13:20:55Z</time>
      </trkpt>
      <trkpt lat="44.87938" lon="0.52862">
        <ele>37.15</ele>
        <time>2014-01-12T13:21:10Z</time>
      </trkpt>
      <trkpt lat="44.87932" lon="0.52892">
        <ele>37.63</ele>
        <time>2014-01-12T13:21:25Z</time>
      </trkpt>
      <trkpt lat="44.87919" lon="0.52905">
        <ele>38.59</ele>
        <time>2014-01-12T13:21:41Z</time>
      </trkpt>
      <trkpt lat="44.87918" lon="0.52912">
        <ele>38.59</ele>
        <time>2014-01-12T13:21:45Z</time>
      </trkpt>
      <trkpt lat="44.87919" lon="0.52935">
        <ele>38.11</ele>
        <time>2014-01-12T13:22:02Z</time>
      </trkpt>
      <trkpt lat="44.8792" lon="0.52954">
        <ele>38.11</ele>
        <time>2014-01-12T13:22:11Z</time>
      </trkpt>
      <trkpt lat="44.8792" lon="0.5296">
        <ele>38.59</ele>
        <time>2014-01-12T13:22:16Z</time>
      </trkpt>
      <trkpt lat="44.87919" lon="0.52971">
        <ele>38.11</ele>
        <time>2014-01-12T13:22:29Z</time>
      </trkpt>
      <trkpt lat="44.8792" lon="0.52971">
        <ele>38.59</ele>
        <time>2014-01-12T13:22:56Z</time>
      </trkpt>
      <trkpt lat="44.87932" lon="0.52998">
        <ele>37.63</ele>
        <time>2014-01-12T13:23:10Z</time>
      </trkpt>
      <trkpt lat="44.87935" lon="0.53006">
        <ele>39.07</ele>
        <time>2014-01-12T13:23:22Z</time>
      </trkpt>
      <trkpt lat="44.87937" lon="0.53013">
        <ele>39.07</ele>
        <time>2014-01-12T13:23:37Z</time>
      </trkpt>
      <trkpt lat="44.87938" lon="0.53017">
        <ele>38.59</ele>
        <time>2014-01-12T13:23:40Z</time>
      </trkpt>
      <trkpt lat="44.87941" lon="0.53037">
        <ele>38.59</ele>
        <time>2014-01-12T13:23:54Z</time>
      </trkpt>
      <trkpt lat="44.87941" lon="0.53038">
        <ele>39.07</ele>
        <time>2014-01-12T13:23:55Z</time>
      </trkpt>
      <trkpt lat="44.8794" lon="0.53045">
        <ele>38.59</ele>
        <time>2014-01-12T13:24:00Z</time>
      </trkpt>
      <trkpt lat="44.87943" lon="0.53064">
        <ele>37.63</ele>
        <time>2014-01-12T13:24:13Z</time>
      </trkpt>
      <trkpt lat="44.87949" lon="0.53082">
        <ele>38.11</ele>
        <time>2014-01-12T13:24:26Z</time>
      </trkpt>
      <trkpt lat="44.8796" lon="0.53093">
        <ele>38.11</ele>
        <time>2014-01-12T13:24:37Z</time>
      </trkpt>
      <trkpt lat="44.87968" lon="0.53108">
        <ele>39.07</ele>
        <time>2014-01-12T13:24:50Z</time>
      </trkpt>
      <trkpt lat="44.87975" lon="0.53129">
        <ele>38.11</ele>
        <time>2014-01-12T13:25:04Z</time>
      </trkpt>
      <trkpt lat="44.87977" lon="0.53136">
        <ele>38.11</ele>
        <time>2014-01-12T13:25:10Z</time>
      </trkpt>
      <trkpt lat="44.87989" lon="0.53132">
        <ele>38.11</ele>
        <time>2014-01-12T13:25:22Z</time>
      </trkpt>
      <trkpt lat="44.87998" lon="0.53133">
        <ele>38.11</ele>
        <time>2014-01-12T13:25:31Z</time>
      </trkpt>
      <trkpt lat="44.88009" lon="0.5315">
        <ele>37.63</ele>
        <time>2014-01-12T13:25:45Z</time>
      </trkpt>
      <trkpt lat="44.88015" lon="0.53154">
        <ele>38.59</ele>
        <time>2014-01-12T13:25:59Z</time>
      </trkpt>
      <trkpt lat="44.88014" lon="0.53155">
        <ele>38.11</ele>
        <time>2014-01-12T13:26:18Z</time>
      </trkpt>
      <trkpt lat="44.88016" lon="0.53175">
        <ele>38.59</ele>
        <time>2014-01-12T13:26:33Z</time>
      </trkpt>
      <trkpt lat="44.88015" lon="0.53182">
        <ele>37.63</ele>
        <time>2014-01-12T13:26:38Z</time>
      </trkpt>
      <trkpt lat="44.88017" lon="0.53202">
        <ele>39.07</ele>
        <time>2014-01-12T13:26:52Z</time>
      </trkpt>
      <trkpt lat="44.8802" lon="0.53214">
        <ele>38.59</ele>
        <time>2014-01-12T13:27:02Z</time>
      </trkpt>
      <trkpt lat="44.88025" lon="0.53223">
        <ele>38.11</ele>
        <time>2014-01-12T13:27:08Z</time>
      </trkpt>
      <trkpt lat="44.88035" lon="0.53231">
        <ele>38.59</ele>
        <time>2014-01-12T13:27:17Z</time>
      </trkpt>
      <trkpt lat="44.88043" lon="0.53247">
        <ele>38.11</ele>
        <time>2014-01-12T13:27:31Z</time>
      </trkpt>
      <trkpt lat="44.88042" lon="0.53258">
        <ele>38.11</ele>
        <time>2014-01-12T13:27:40Z</time>
      </trkpt>
      <trkpt lat="44.8804" lon="0.5326">
        <ele>40.51</ele>
        <time>2014-01-12T13:27:42Z</time>
      </trkpt>
      <trkpt lat="44.88037" lon="0.5327">
        <ele>38.59</ele>
        <time>2014-01-12T13:27:50Z</time>
      </trkpt>
      <trkpt lat="44.8804" lon="0.53283">
        <ele>38.59</ele>
        <time>2014-01-12T13:28:05Z</time>
      </trkpt>
      <trkpt lat="44.88038" lon="0.53296">
        <ele>39.55</ele>
        <time>2014-01-12T13:28:24Z</time>
      </trkpt>
      <trkpt lat="44.88035" lon="0.53298">
        <ele>38.59</ele>
        <time>2014-01-12T13:29:11Z</time>
      </trkpt>
      <trkpt lat="44.88036" lon="0.53308">
        <ele>39.55</ele>
        <time>2014-01-12T13:29:17Z</time>
      </trkpt>
      <trkpt lat="44.88039" lon="0.5332">
        <ele>39.07</ele>
        <time>2014-01-12T13:29:25Z</time>
      </trkpt>
      <trkpt lat="44.88043" lon="0.53342">
        <ele>39.07</ele>
        <time>2014-01-12T13:29:40Z</time>
      </trkpt>
      <trkpt lat="44.88047" lon="0.5336">
        <ele>39.55</ele>
        <time>2014-01-12T13:29:54Z</time>
      </trkpt>
      <trkpt lat="44.88049" lon="0.53381">
        <ele>40.03</ele>
        <time>2014-01-12T13:30:09Z</time>
      </trkpt>
      <trkpt lat="44.8805" lon="0.534">
        <ele>39.55</ele>
        <time>2014-01-12T13:30:22Z</time>
      </trkpt>
      <trkpt lat="44.8805" lon="0.53408">
        <ele>40.03</ele>
        <time>2014-01-12T13:30:37Z</time>
      </trkpt>
      <trkpt lat="44.8805" lon="0.53418">
        <ele>39.55</ele>
        <time>2014-01-12T13:30:50Z</time>
      </trkpt>
      <trkpt lat="44.88049" lon="0.5344">
        <ele>39.55</ele>
        <time>2014-01-12T13:31:06Z</time>
      </trkpt>
      <trkpt lat="44.8805" lon="0.53444">
        <ele>40.03</ele>
        <time>2014-01-12T13:31:08Z</time>
      </trkpt>
      <trkpt lat="44.88052" lon="0.53451">
        <ele>40.03</ele>
        <time>2014-01-12T13:31:11Z</time>
      </trkpt>
      <trkpt lat="44.88051" lon="0.53474">
        <ele>39.55</ele>
        <time>2014-01-12T13:31:24Z</time>
      </trkpt>
      <trkpt lat="44.88049" lon="0.53491">
        <ele>39.55</ele>
        <time>2014-01-12T13:31:35Z</time>
      </trkpt>
      <trkpt lat="44.88056" lon="0.5352">
        <ele>40.03</ele>
        <time>2014-01-12T13:31:50Z</time>
      </trkpt>
      <trkpt lat="44.88058" lon="0.53522">
        <ele>40.51</ele>
        <time>2014-01-12T13:31:52Z</time>
      </trkpt>
      <trkpt lat="44.88063" lon="0.53539">
        <ele>40.99</ele>
        <time>2014-01-12T13:32:05Z</time>
      </trkpt>
      <trkpt lat="44.88061" lon="0.5356">
        <ele>40.51</ele>
        <time>2014-01-12T13:32:19Z</time>
      </trkpt>
      <trkpt lat="44.88061" lon="0.53562">
        <ele>40.51</ele>
        <time>2014-01-12T13:32:20Z</time>
      </trkpt>
      <trkpt lat="44.88069" lon="0.53588">
        <ele>40.51</ele>
        <time>2014-01-12T13:32:34Z</time>
      </trkpt>
      <trkpt lat="44.88071" lon="0.53612">
        <ele>40.99</ele>
        <time>2014-01-12T13:32:49Z</time>
      </trkpt>
      <trkpt lat="44.88073" lon="0.53629">
        <ele>40.03</ele>
        <time>2014-01-12T13:33:00Z</time>
      </trkpt>
      <trkpt lat="44.88077" lon="0.53642">
        <ele>40.51</ele>
        <time>2014-01-12T13:33:08Z</time>
      </trkpt>
      <trkpt lat="44.8808" lon="0.53658">
        <ele>40.51</ele>
        <time>2014-01-12T13:33:20Z</time>
      </trkpt>
      <trkpt lat="44.88082" lon="0.53676">
        <ele>40.03</ele>
        <time>2014-01-12T13:33:32Z</time>
      </trkpt>
      <trkpt lat="44.88094" lon="0.53689">
        <ele>40.51</ele>
        <time>2014-01-12T13:33:43Z</time>
      </trkpt>
      <trkpt lat="44.88095" lon="0.53702">
        <ele>40.99</ele>
        <time>2014-01-12T13:33:53Z</time>
      </trkpt>
      <trkpt lat="44.88092" lon="0.53717">
        <ele>40.03</ele>
        <time>2014-01-12T13:34:03Z</time>
      </trkpt>
      <trkpt lat="44.88092" lon="0.53721">
        <ele>40.99</ele>
        <time>2014-01-12T13:34:06Z</time>
      </trkpt>
      <trkpt lat="44.88096" lon="0.53739">
        <ele>40.99</ele>
        <time>2014-01-12T13:34:20Z</time>
      </trkpt>
      <trkpt lat="44.88098" lon="0.53743">
        <ele>40.51</ele>
        <time>2014-01-12T13:34:24Z</time>
      </trkpt>
      <trkpt lat="44.88106" lon="0.53761">
        <ele>41.47</ele>
        <time>2014-01-12T13:34:37Z</time>
      </trkpt>
      <trkpt lat="44.88113" lon="0.53775">
        <ele>40.51</ele>
        <time>2014-01-12T13:34:47Z</time>
      </trkpt>
      <trkpt lat="44.88117" lon="0.53784">
        <ele>40.99</ele>
        <time>2014-01-12T13:34:52Z</time>
      </trkpt>
      <trkpt lat="44.88127" lon="0.53797">
        <ele>40.51</ele>
        <time>2014-01-12T13:35:04Z</time>
      </trkpt>
      <trkpt lat="44.88128" lon="0.53799">
        <ele>41.47</ele>
        <time>2014-01-12T13:35:05Z</time>
      </trkpt>
      <trkpt lat="44.88133" lon="0.53818">
        <ele>40.51</ele>
        <time>2014-01-12T13:35:21Z</time>
      </trkpt>
      <trkpt lat="44.88134" lon="0.53825">
        <ele>41.47</ele>
        <time>2014-01-12T13:35:25Z</time>
      </trkpt>
      <trkpt lat="44.8814" lon="0.53833">
        <ele>40.03</ele>
        <time>2014-01-12T13:35:31Z</time>
      </trkpt>
      <trkpt lat="44.88142" lon="0.53836">
        <ele>40.99</ele>
        <time>2014-01-12T13:35:38Z</time>
      </trkpt>
      <trkpt lat="44.88158" lon="0.53828">
        <ele>41.95</ele>
        <time>2014-01-12T13:35:59Z</time>
      </trkpt>
      <trkpt lat="44.88164" lon="0.53842">
        <ele>41.95</ele>
        <time>2014-01-12T13:36:12Z</time>
      </trkpt>
      <trkpt lat="44.88172" lon="0.53855">
        <ele>40.99</ele>
        <time>2014-01-12T13:36:24Z</time>
      </trkpt>
      <trkpt lat="44.88176" lon="0.53862">
        <ele>40.99</ele>
        <time>2014-01-12T13:36:30Z</time>
      </trkpt>
      <trkpt lat="44.88176" lon="0.53882">
        <ele>41.47</ele>
        <time>2014-01-12T13:36:46Z</time>
      </trkpt>
      <trkpt lat="44.88176" lon="0.53891">
        <ele>41.47</ele>
        <time>2014-01-12T13:36:56Z</time>
      </trkpt>
      <trkpt lat="44.88174" lon="0.53896">
        <ele>41.95</ele>
        <time>2014-01-12T13:37:00Z</time>
      </trkpt>
      <trkpt lat="44.88172" lon="0.53905">
        <ele>40.99</ele>
        <time>2014-01-12T13:37:07Z</time>
      </trkpt>
      <trkpt lat="44.8817" lon="0.5392">
        <ele>40.99</ele>
        <time>2014-01-12T13:37:18Z</time>
      </trkpt>
      <trkpt lat="44.88167" lon="0.5393">
        <ele>41.47</ele>
        <time>2014-01-12T13:37:25Z</time>
      </trkpt>
      <trkpt lat="44.88163" lon="0.53953">
        <ele>40.99</ele>
        <time>2014-01-12T13:37:39Z</time>
      </trkpt>
      <trkpt lat="44.88164" lon="0.53956">
        <ele>41.47</ele>
        <time>2014-01-12T13:37:42Z</time>
      </trkpt>
      <trkpt lat="44.88166" lon="0.53966">
        <ele>41.47</ele>
        <time>2014-01-12T13:37:50Z</time>
      </trkpt>
      <trkpt lat="44.8817" lon="0.53986">
        <ele>41.95</ele>
        <time>2014-01-12T13:38:03Z</time>
      </trkpt>
      <trkpt lat="44.88168" lon="0.53993">
        <ele>41.95</ele>
        <time>2014-01-12T13:38:09Z</time>
      </trkpt>
      <trkpt lat="44.88158" lon="0.54011">
        <ele>42.44</ele>
        <time>2014-01-12T13:38:24Z</time>
      </trkpt>
      <trkpt lat="44.88158" lon="0.54013">
        <ele>41.47</ele>
        <time>2014-01-12T13:38:25Z</time>
      </trkpt>
      <trkpt lat="44.88162" lon="0.54037">
        <ele>41.95</ele>
        <time>2014-01-12T13:38:42Z</time>
      </trkpt>
      <trkpt lat="44.88167" lon="0.54049">
        <ele>42.44</ele>
        <time>2014-01-12T13:38:50Z</time>
      </trkpt>
      <trkpt lat="44.88177" lon="0.54068">
        <ele>41.95</ele>
        <time>2014-01-12T13:39:06Z</time>
      </trkpt>
      <trkpt lat="44.88178" lon="0.5407">
        <ele>41.95</ele>
        <time>2014-01-12T13:39:07Z</time>
      </trkpt>
      <trkpt lat="44.88181" lon="0.54093">
        <ele>41.95</ele>
        <time>2014-01-12T13:39:23Z</time>
      </trkpt>
      <trkpt lat="44.88182" lon="0.54098">
        <ele>41.95</ele>
        <time>2014-01-12T13:39:26Z</time>
      </trkpt>
      <trkpt lat="44.88192" lon="0.54109">
        <ele>42.44</ele>
        <time>2014-01-12T13:39:40Z</time>
      </trkpt>
      <trkpt lat="44.88205" lon="0.54116">
        <ele>42.92</ele>
        <time>2014-01-12T13:39:55Z</time>
      </trkpt>
      <trkpt lat="44.88216" lon="0.54131">
        <ele>41.95</ele>
        <time>2014-01-12T13:40:10Z</time>
      </trkpt>
      <trkpt lat="44.88231" lon="0.54145">
        <ele>41.95</ele>
        <time>2014-01-12T13:40:26Z</time>
      </trkpt>
      <trkpt lat="44.8823" lon="0.54147">
        <ele>41.95</ele>
        <time>2014-01-12T13:40:29Z</time>
      </trkpt>
      <trkpt lat="44.88241" lon="0.5413">
        <ele>42.44</ele>
        <time>2014-01-12T13:40:41Z</time>
      </trkpt>
      <trkpt lat="44.8825" lon="0.54116">
        <ele>42.44</ele>
        <time>2014-01-12T13:40:52Z</time>
      </trkpt>
      <trkpt lat="44.88255" lon="0.54114">
        <ele>41.95</ele>
        <time>2014-01-12T13:41:13Z</time>
      </trkpt>
      <trkpt lat="44.88249" lon="0.54101">
        <ele>41.95</ele>
        <time>2014-01-12T13:41:40Z</time>
      </trkpt>
      <trkpt lat="44.88244" lon="0.54104">
        <ele>43.88</ele>
        <time>2014-01-12T13:42:02Z</time>
      </trkpt>
      <trkpt lat="44.88256" lon="0.54113">
        <ele>43.88</ele>
        <time>2014-01-12T13:42:22Z</time>
      </trkpt>
      <trkpt lat="44.88256" lon="0.54114">
        <ele>43.88</ele>
        <time>2014-01-12T13:42:55Z</time>
      </trkpt>
      <trkpt lat="44.88262" lon="0.54104">
        <ele>42.92</ele>
        <time>2014-01-12T13:43:39Z</time>
      </trkpt>
      <trkpt lat="44.88263" lon="0.54084">
        <ele>43.88</ele>
        <time>2014-01-12T13:43:53Z</time>
      </trkpt>
      <trkpt lat="44.88266" lon="0.54072">
        <ele>44.36</ele>
        <time>2014-01-12T13:44:02Z</time>
      </trkpt>
      <trkpt lat="44.88282" lon="0.54064">
        <ele>45.32</ele>
        <time>2014-01-12T13:44:17Z</time>
      </trkpt>
      <trkpt lat="44.88285" lon="0.54063">
        <ele>45.8</ele>
        <time>2014-01-12T13:44:20Z</time>
      </trkpt>
      <trkpt lat="44.88288" lon="0.5406">
        <ele>44.84</ele>
        <time>2014-01-12T13:44:24Z</time>
      </trkpt>
      <trkpt lat="44.88293" lon="0.54057">
        <ele>46.28</ele>
        <time>2014-01-12T13:44:29Z</time>
      </trkpt>
      <trkpt lat="44.88299" lon="0.54051">
        <ele>46.28</ele>
        <time>2014-01-12T13:44:35Z</time>
      </trkpt>
      <trkpt lat="44.88307" lon="0.54047">
        <ele>45.8</ele>
        <time>2014-01-12T13:44:42Z</time>
      </trkpt>
      <trkpt lat="44.88322" lon="0.54039">
        <ele>46.76</ele>
        <time>2014-01-12T13:44:57Z</time>
      </trkpt>
      <trkpt lat="44.88323" lon="0.54039">
        <ele>47.72</ele>
        <time>2014-01-12T13:44:58Z</time>
      </trkpt>
      <trkpt lat="44.88339" lon="0.54029">
        <ele>46.76</ele>
        <time>2014-01-12T13:45:14Z</time>
      </trkpt>
      <trkpt lat="44.88344" lon="0.54026">
        <ele>47.72</ele>
        <time>2014-01-12T13:45:20Z</time>
      </trkpt>
      <trkpt lat="44.88351" lon="0.5402">
        <ele>47.72</ele>
        <time>2014-01-12T13:45:36Z</time>
      </trkpt>
      <trkpt lat="44.88357" lon="0.54015">
        <ele>47.72</ele>
        <time>2014-01-12T13:45:48Z</time>
      </trkpt>
      <trkpt lat="44.8837" lon="0.54008">
        <ele>49.16</ele>
        <time>2014-01-12T13:46:02Z</time>
      </trkpt>
      <trkpt lat="44.88377" lon="0.54006">
        <ele>50.13</ele>
        <time>2014-01-12T13:46:11Z</time>
      </trkpt>
      <trkpt lat="44.88387" lon="0.53998">
        <ele>51.09</ele>
        <time>2014-01-12T13:46:23Z</time>
      </trkpt>
      <trkpt lat="44.88393" lon="0.53993">
        <ele>50.61</ele>
        <time>2014-01-12T13:46:29Z</time>
      </trkpt>
      <trkpt lat="44.88397" lon="0.53993">
        <ele>51.57</ele>
        <time>2014-01-12T13:46:33Z</time>
      </trkpt>
      <trkpt lat="44.88402" lon="0.53998">
        <ele>51.57</ele>
        <time>2014-01-12T13:46:49Z</time>
      </trkpt>
      <trkpt lat="44.88415" lon="0.54009">
        <ele>54.93</ele>
        <time>2014-01-12T13:47:03Z</time>
      </trkpt>
      <trkpt lat="44.88428" lon="0.54011">
        <ele>56.86</ele>
        <time>2014-01-12T13:47:18Z</time>
      </trkpt>
      <trkpt lat="44.88434" lon="0.5401">
        <ele>57.34</ele>
        <time>2014-01-12T13:47:26Z</time>
      </trkpt>
      <trkpt lat="44.8845" lon="0.54007">
        <ele>60.22</ele>
        <time>2014-01-12T13:47:42Z</time>
      </trkpt>
      <trkpt lat="44.88468" lon="0.54008">
        <ele>61.66</ele>
        <time>2014-01-12T13:47:58Z</time>
      </trkpt>
      <trkpt lat="44.88486" lon="0.54007">
        <ele>63.1</ele>
        <time>2014-01-12T13:48:12Z</time>
      </trkpt>
      <trkpt lat="44.88499" lon="0.54004">
        <ele>64.55</ele>
        <time>2014-01-12T13:48:26Z</time>
      </trkpt>
      <trkpt lat="44.88509" lon="0.53999">
        <ele>65.99</ele>
        <time>2014-01-12T13:48:37Z</time>
      </trkpt>
      <trkpt lat="44.88522" lon="0.54002">
        <ele>69.35</ele>
        <time>2014-01-12T13:48:50Z</time>
      </trkpt>
      <trkpt lat="44.88534" lon="0.54001">
        <ele>69.83</ele>
        <time>2014-01-12T13:49:00Z</time>
      </trkpt>
      <trkpt lat="44.88539" lon="0.53999">
        <ele>69.83</ele>
        <time>2014-01-12T13:49:04Z</time>
      </trkpt>
      <trkpt lat="44.8855" lon="0.53987">
        <ele>71.76</ele>
        <time>2014-01-12T13:49:15Z</time>
      </trkpt>
      <trkpt lat="44.88553" lon="0.53981">
        <ele>71.27</ele>
        <time>2014-01-12T13:49:20Z</time>
      </trkpt>
      <trkpt lat="44.88558" lon="0.53968">
        <ele>72.72</ele>
        <time>2014-01-12T13:49:31Z</time>
      </trkpt>
      <trkpt lat="44.88565" lon="0.53958">
        <ele>73.2</ele>
        <time>2014-01-12T13:49:39Z</time>
      </trkpt>
      <trkpt lat="44.88569" lon="0.53952">
        <ele>74.16</ele>
        <time>2014-01-12T13:49:44Z</time>
      </trkpt>
      <trkpt lat="44.88579" lon="0.53938">
        <ele>76.08</ele>
        <time>2014-01-12T13:49:57Z</time>
      </trkpt>
      <trkpt lat="44.88592" lon="0.53932">
        <ele>77.52</ele>
        <time>2014-01-12T13:50:10Z</time>
      </trkpt>
      <trkpt lat="44.88608" lon="0.53926">
        <ele>79.45</ele>
        <time>2014-01-12T13:50:24Z</time>
      </trkpt>
      <trkpt lat="44.88619" lon="0.53918">
        <ele>80.89</ele>
        <time>2014-01-12T13:50:34Z</time>
      </trkpt>
      <trkpt lat="44.88636" lon="0.53906">
        <ele>82.81</ele>
        <time>2014-01-12T13:50:51Z</time>
      </trkpt>
      <trkpt lat="44.88651" lon="0.539">
        <ele>86.18</ele>
        <time>2014-01-12T13:51:06Z</time>
      </trkpt>
      <trkpt lat="44.88663" lon="0.53899">
        <ele>86.66</ele>
        <time>2014-01-12T13:51:17Z</time>
      </trkpt>
      <trkpt lat="44.88667" lon="0.53899">
        <ele>87.14</ele>
        <time>2014-01-12T13:51:21Z</time>
      </trkpt>
      <trkpt lat="44.88681" lon="0.53886">
        <ele>88.1</ele>
        <time>2014-01-12T13:51:36Z</time>
      </trkpt>
      <trkpt lat="44.88693" lon="0.53872">
        <ele>90.02</ele>
        <time>2014-01-12T13:51:50Z</time>
      </trkpt>
      <trkpt lat="44.88705" lon="0.53865">
        <ele>89.06</ele>
        <time>2014-01-12T13:52:02Z</time>
      </trkpt>
      <trkpt lat="44.88718" lon="0.53855">
        <ele>90.98</ele>
        <time>2014-01-12T13:52:17Z</time>
      </trkpt>
      <trkpt lat="44.88726" lon="0.53847">
        <ele>91.94</ele>
        <time>2014-01-12T13:52:30Z</time>
      </trkpt>
      <trkpt lat="44.88732" lon="0.53845">
        <ele>91.46</ele>
        <time>2014-01-12T13:52:38Z</time>
      </trkpt>
      <trkpt lat="44.88746" lon="0.53834">
        <ele>91.94</ele>
        <time>2014-01-12T13:52:52Z</time>
      </trkpt>
      <trkpt lat="44.88751" lon="0.53833">
        <ele>93.39</ele>
        <time>2014-01-12T13:52:58Z</time>
      </trkpt>
      <trkpt lat="44.88766" lon="0.53824">
        <ele>94.83</ele>
        <time>2014-01-12T13:53:13Z</time>
      </trkpt>
      <trkpt lat="44.8878" lon="0.53815">
        <ele>96.75</ele>
        <time>2014-01-12T13:53:27Z</time>
      </trkpt>
      <trkpt lat="44.88799" lon="0.53807">
        <ele>97.71</ele>
        <time>2014-01-12T13:53:42Z</time>
      </trkpt>
      <trkpt lat="44.88816" lon="0.53799">
        <ele>99.15</ele>
        <time>2014-01-12T13:53:58Z</time>
      </trkpt>
      <trkpt lat="44.88826" lon="0.53797">
        <ele>101.08</ele>
        <time>2014-01-12T13:54:09Z</time>
      </trkpt>
      <trkpt lat="44.88837" lon="0.53795">
        <ele>102.52</ele>
        <time>2014-01-12T13:54:19Z</time>
      </trkpt>
      <trkpt lat="44.88851" lon="0.538">
        <ele>105.88</ele>
        <time>2014-01-12T13:54:35Z</time>
      </trkpt>
      <trkpt lat="44.88866" lon="0.53806">
        <ele>106.36</ele>
        <time>2014-01-12T13:54:56Z</time>
      </trkpt>
      <trkpt lat="44.88866" lon="0.53805">
        <ele>105.4</ele>
        <time>2014-01-12T13:55:08Z</time>
      </trkpt>
      <trkpt lat="44.88867" lon="0.5381">
        <ele>105.88</ele>
        <time>2014-01-12T13:55:19Z</time>
      </trkpt>
      <trkpt lat="44.88868" lon="0.53811">
        <ele>105.88</ele>
        <time>2014-01-12T13:55:35Z</time>
      </trkpt>
      <trkpt lat="44.88869" lon="0.53816">
        <ele>106.36</ele>
        <time>2014-01-12T13:55:41Z</time>
      </trkpt>
      <trkpt lat="44.88875" lon="0.53831">
        <ele>107.32</ele>
        <time>2014-01-12T13:55:54Z</time>
      </trkpt>
      <trkpt lat="44.88877" lon="0.53835">
        <ele>107.81</ele>
        <time>2014-01-12T13:55:59Z</time>
      </trkpt>
      <trkpt lat="44.88879" lon="0.53853">
        <ele>108.29</ele>
        <time>2014-01-12T13:56:12Z</time>
      </trkpt>
      <trkpt lat="44.88883" lon="0.53868">
        <ele>108.77</ele>
        <time>2014-01-12T13:56:25Z</time>
      </trkpt>
      <trkpt lat="44.88882" lon="0.53867">
        <ele>108.77</ele>
        <time>2014-01-12T13:56:48Z</time>
      </trkpt>
      <trkpt lat="44.88887" lon="0.53876">
        <ele>108.77</ele>
        <time>2014-01-12T13:56:56Z</time>
      </trkpt>
      <trkpt lat="44.88895" lon="0.53894">
        <ele>108.29</ele>
        <time>2014-01-12T13:57:10Z</time>
      </trkpt>
      <trkpt lat="44.88904" lon="0.5391">
        <ele>107.32</ele>
        <time>2014-01-12T13:57:23Z</time>
      </trkpt>
      <trkpt lat="44.88912" lon="0.53917">
        <ele>107.81</ele>
        <time>2014-01-12T13:57:37Z</time>
      </trkpt>
      <trkpt lat="44.88913" lon="0.53918">
        <ele>108.77</ele>
        <time>2014-01-12T13:58:03Z</time>
      </trkpt>
      <trkpt lat="44.88914" lon="0.53922">
        <ele>109.25</ele>
        <time>2014-01-12T13:58:10Z</time>
      </trkpt>
      <trkpt lat="44.88915" lon="0.5393">
        <ele>107.81</ele>
        <time>2014-01-12T13:58:28Z</time>
      </trkpt>
      <trkpt lat="44.88928" lon="0.53949">
        <ele>107.81</ele>
        <time>2014-01-12T13:58:40Z</time>
      </trkpt>
      <trkpt lat="44.88931" lon="0.53953">
        <ele>107.81</ele>
        <time>2014-01-12T13:58:45Z</time>
      </trkpt>
      <trkpt lat="44.88941" lon="0.53973">
        <ele>109.25</ele>
        <time>2014-01-12T13:58:58Z</time>
      </trkpt>
      <trkpt lat="44.88949" lon="0.53987">
        <ele>108.29</ele>
        <time>2014-01-12T13:59:12Z</time>
      </trkpt>
      <trkpt lat="44.88961" lon="0.54001">
        <ele>109.73</ele>
        <time>2014-01-12T13:59:24Z</time>
      </trkpt>
      <trkpt lat="44.88972" lon="0.54011">
        <ele>111.17</ele>
        <time>2014-01-12T13:59:39Z</time>
      </trkpt>
      <trkpt lat="44.88973" lon="0.54012">
        <ele>109.73</ele>
        <time>2014-01-12T13:59:40Z</time>
      </trkpt>
      <trkpt lat="44.88991" lon="0.54022">
        <ele>111.17</ele>
        <time>2014-01-12T13:59:54Z</time>
      </trkpt>
      <trkpt lat="44.89004" lon="0.54025">
        <ele>110.69</ele>
        <time>2014-01-12T14:00:09Z</time>
      </trkpt>
      <trkpt lat="44.89008" lon="0.54026">
        <ele>110.69</ele>
        <time>2014-01-12T14:00:19Z</time>
      </trkpt>
      <trkpt lat="44.89012" lon="0.54031">
        <ele>111.65</ele>
        <time>2014-01-12T14:00:27Z</time>
      </trkpt>
      <trkpt lat="44.89021" lon="0.54048">
        <ele>109.73</ele>
        <time>2014-01-12T14:00:41Z</time>
      </trkpt>
      <trkpt lat="44.89027" lon="0.54061">
        <ele>108.29</ele>
        <time>2014-01-12T14:00:53Z</time>
      </trkpt>
      <trkpt lat="44.8903" lon="0.54063">
        <ele>108.77</ele>
        <time>2014-01-12T14:00:56Z</time>
      </trkpt>
      <trkpt lat="44.89037" lon="0.54067">
        <ele>106.84</ele>
        <time>2014-01-12T14:01:03Z</time>
      </trkpt>
      <trkpt lat="44.89054" lon="0.54086">
        <ele>105.88</ele>
        <time>2014-01-12T14:01:18Z</time>
      </trkpt>
      <trkpt lat="44.89055" lon="0.54087">
        <ele>106.36</ele>
        <time>2014-01-12T14:01:19Z</time>
      </trkpt>
      <trkpt lat="44.89061" lon="0.54093">
        <ele>106.36</ele>
        <time>2014-01-12T14:01:26Z</time>
      </trkpt>
      <trkpt lat="44.8908" lon="0.54101">
        <ele>106.36</ele>
        <time>2014-01-12T14:01:40Z</time>
      </trkpt>
      <trkpt lat="44.89087" lon="0.54108">
        <ele>106.84</ele>
        <time>2014-01-12T14:01:48Z</time>
      </trkpt>
      <trkpt lat="44.89095" lon="0.54126">
        <ele>107.32</ele>
        <time>2014-01-12T14:02:01Z</time>
      </trkpt>
      <trkpt lat="44.89102" lon="0.54145">
        <ele>108.29</ele>
        <time>2014-01-12T14:02:16Z</time>
      </trkpt>
      <trkpt lat="44.89105" lon="0.54154">
        <ele>108.77</ele>
        <time>2014-01-12T14:02:24Z</time>
      </trkpt>
      <trkpt lat="44.891" lon="0.54171">
        <ele>109.73</ele>
        <time>2014-01-12T14:02:36Z</time>
      </trkpt>
      <trkpt lat="44.8909" lon="0.54185">
        <ele>111.17</ele>
        <time>2014-01-12T14:02:50Z</time>
      </trkpt>
      <trkpt lat="44.89092" lon="0.54193">
        <ele>111.17</ele>
        <time>2014-01-12T14:02:57Z</time>
      </trkpt>
      <trkpt lat="44.89107" lon="0.54192">
        <ele>113.09</ele>
        <time>2014-01-12T14:03:10Z</time>
      </trkpt>
      <trkpt lat="44.89123" lon="0.54192">
        <ele>113.57</ele>
        <time>2014-01-12T14:03:23Z</time>
      </trkpt>
      <trkpt lat="44.89126" lon="0.54193">
        <ele>114.05</ele>
        <time>2014-01-12T14:03:25Z</time>
      </trkpt>
      <trkpt lat="44.89132" lon="0.54196">
        <ele>114.05</ele>
        <time>2014-01-12T14:03:30Z</time>
      </trkpt>
      <trkpt lat="44.89144" lon="0.54202">
        <ele>115.01</ele>
        <time>2014-01-12T14:03:43Z</time>
      </trkpt>
      <trkpt lat="44.89156" lon="0.54207">
        <ele>117.42</ele>
        <time>2014-01-12T14:03:58Z</time>
      </trkpt>
      <trkpt lat="44.89162" lon="0.54213">
        <ele>118.86</ele>
        <time>2014-01-12T14:04:05Z</time>
      </trkpt>
      <trkpt lat="44.89179" lon="0.54228">
        <ele>119.34</ele>
        <time>2014-01-12T14:04:22Z</time>
      </trkpt>
      <trkpt lat="44.89181" lon="0.5423">
        <ele>120.3</ele>
        <time>2014-01-12T14:04:24Z</time>
      </trkpt>
      <trkpt lat="44.89193" lon="0.54243">
        <ele>120.78</ele>
        <time>2014-01-12T14:04:43Z</time>
      </trkpt>
      <trkpt lat="44.89197" lon="0.54246">
        <ele>120.3</ele>
        <time>2014-01-12T14:04:48Z</time>
      </trkpt>
      <trkpt lat="44.89204" lon="0.5425">
        <ele>121.26</ele>
        <time>2014-01-12T14:05:16Z</time>
      </trkpt>
      <trkpt lat="44.89214" lon="0.54236">
        <ele>121.26</ele>
        <time>2014-01-12T14:05:29Z</time>
      </trkpt>
      <trkpt lat="44.89232" lon="0.54218">
        <ele>121.26</ele>
        <time>2014-01-12T14:05:44Z</time>
      </trkpt>
      <trkpt lat="44.89243" lon="0.54204">
        <ele>121.74</ele>
        <time>2014-01-12T14:05:58Z</time>
      </trkpt>
      <trkpt lat="44.89244" lon="0.54202">
        <ele>122.22</ele>
        <time>2014-01-12T14:05:59Z</time>
      </trkpt>
      <trkpt lat="44.89258" lon="0.5418">
        <ele>122.22</ele>
        <time>2014-01-12T14:06:17Z</time>
      </trkpt>
      <trkpt lat="44.89268" lon="0.54165">
        <ele>122.22</ele>
        <time>2014-01-12T14:06:29Z</time>
      </trkpt>
      <trkpt lat="44.89275" lon="0.54155">
        <ele>123.19</ele>
        <time>2014-01-12T14:06:41Z</time>
      </trkpt>
      <trkpt lat="44.89285" lon="0.54146">
        <ele>123.67</ele>
        <time>2014-01-12T14:06:52Z</time>
      </trkpt>
      <trkpt lat="44.89302" lon="0.54134">
        <ele>125.11</ele>
        <time>2014-01-12T14:07:06Z</time>
      </trkpt>
      <trkpt lat="44.89315" lon="0.54129">
        <ele>126.07</ele>
        <time>2014-01-12T14:07:19Z</time>
      </trkpt>
      <trkpt lat="44.89322" lon="0.5412">
        <ele>126.07</ele>
        <time>2014-01-12T14:07:26Z</time>
      </trkpt>
      <trkpt lat="44.89326" lon="0.54114">
        <ele>126.55</ele>
        <time>2014-01-12T14:07:31Z</time>
      </trkpt>
      <trkpt lat="44.89328" lon="0.54107">
        <ele>125.59</ele>
        <time>2014-01-12T14:07:37Z</time>
      </trkpt>
      <trkpt lat="44.89344" lon="0.54097">
        <ele>126.55</ele>
        <time>2014-01-12T14:07:52Z</time>
      </trkpt>
      <trkpt lat="44.89361" lon="0.54083">
        <ele>126.07</ele>
        <time>2014-01-12T14:08:07Z</time>
      </trkpt>
      <trkpt lat="44.89375" lon="0.54074">
        <ele>125.11</ele>
        <time>2014-01-12T14:08:20Z</time>
      </trkpt>
      <trkpt lat="44.89389" lon="0.54064">
        <ele>124.15</ele>
        <time>2014-01-12T14:08:34Z</time>
      </trkpt>
      <trkpt lat="44.89406" lon="0.54073">
        <ele>123.19</ele>
        <time>2014-01-12T14:08:50Z</time>
      </trkpt>
      <trkpt lat="44.89412" lon="0.5408">
        <ele>122.71</ele>
        <time>2014-01-12T14:08:56Z</time>
      </trkpt>
      <trkpt lat="44.89427" lon="0.54099">
        <ele>121.74</ele>
        <time>2014-01-12T14:09:13Z</time>
      </trkpt>
      <trkpt lat="44.89438" lon="0.54113">
        <ele>121.26</ele>
        <time>2014-01-12T14:09:25Z</time>
      </trkpt>
      <trkpt lat="44.89453" lon="0.54131">
        <ele>120.78</ele>
        <time>2014-01-12T14:09:42Z</time>
      </trkpt>
      <trkpt lat="44.89467" lon="0.54148">
        <ele>120.3</ele>
        <time>2014-01-12T14:09:57Z</time>
      </trkpt>
      <trkpt lat="44.89473" lon="0.54165">
        <ele>120.3</ele>
        <time>2014-01-12T14:10:10Z</time>
      </trkpt>
      <trkpt lat="44.8948" lon="0.54181">
        <ele>118.38</ele>
        <time>2014-01-12T14:10:22Z</time>
      </trkpt>
      <trkpt lat="44.89488" lon="0.54174">
        <ele>118.86</ele>
        <time>2014-01-12T14:10:33Z</time>
      </trkpt>
      <trkpt lat="44.89487" lon="0.54174">
        <ele>118.86</ele>
        <time>2014-01-12T14:11:00Z</time>
      </trkpt>
      <trkpt lat="44.89497" lon="0.54196">
        <ele>118.38</ele>
        <time>2014-01-12T14:11:14Z</time>
      </trkpt>
      <trkpt lat="44.89502" lon="0.54207">
        <ele>118.38</ele>
        <time>2014-01-12T14:11:21Z</time>
      </trkpt>
      <trkpt lat="44.89504" lon="0.54213">
        <ele>117.9</ele>
        <time>2014-01-12T14:11:24Z</time>
      </trkpt>
      <trkpt lat="44.89511" lon="0.54227">
        <ele>118.38</ele>
        <time>2014-01-12T14:11:38Z</time>
      </trkpt>
      <trkpt lat="44.89516" lon="0.54222">
        <ele>118.38</ele>
        <time>2014-01-12T14:11:46Z</time>
      </trkpt>
      <trkpt lat="44.89529" lon="0.54205">
        <ele>119.34</ele>
        <time>2014-01-12T14:11:58Z</time>
      </trkpt>
      <trkpt lat="44.89547" lon="0.5419">
        <ele>119.34</ele>
        <time>2014-01-12T14:12:10Z</time>
      </trkpt>
      <trkpt lat="44.89555" lon="0.54174">
        <ele>119.82</ele>
        <time>2014-01-12T14:12:23Z</time>
      </trkpt>
      <trkpt lat="44.89556" lon="0.5417">
        <ele>120.78</ele>
        <time>2014-01-12T14:12:26Z</time>
      </trkpt>
      <trkpt lat="44.89566" lon="0.54149">
        <ele>121.26</ele>
        <time>2014-01-12T14:12:41Z</time>
      </trkpt>
      <trkpt lat="44.89579" lon="0.54154">
        <ele>120.78</ele>
        <time>2014-01-12T14:12:55Z</time>
      </trkpt>
      <trkpt lat="44.8959" lon="0.54164">
        <ele>120.78</ele>
        <time>2014-01-12T14:13:10Z</time>
      </trkpt>
      <trkpt lat="44.89601" lon="0.5418">
        <ele>120.3</ele>
        <time>2014-01-12T14:13:25Z</time>
      </trkpt>
      <trkpt lat="44.89613" lon="0.542">
        <ele>120.78</ele>
        <time>2014-01-12T14:13:41Z</time>
      </trkpt>
      <trkpt lat="44.8962" lon="0.54209">
        <ele>121.74</ele>
        <time>2014-01-12T14:13:49Z</time>
      </trkpt>
      <trkpt lat="44.89624" lon="0.54214">
        <ele>122.71</ele>
        <time>2014-01-12T14:13:54Z</time>
      </trkpt>
      <trkpt lat="44.8963" lon="0.5421">
        <ele>122.22</ele>
        <time>2014-01-12T14:14:00Z</time>
      </trkpt>
      <trkpt lat="44.89647" lon="0.54198">
        <ele>122.71</ele>
        <time>2014-01-12T14:14:14Z</time>
      </trkpt>
      <trkpt lat="44.8966" lon="0.5419">
        <ele>122.71</ele>
        <time>2014-01-12T14:14:27Z</time>
      </trkpt>
      <trkpt lat="44.89673" lon="0.54183">
        <ele>122.71</ele>
        <time>2014-01-12T14:14:38Z</time>
      </trkpt>
      <trkpt lat="44.8969" lon="0.54178">
        <ele>122.71</ele>
        <time>2014-01-12T14:14:50Z</time>
      </trkpt>
      <trkpt lat="44.89702" lon="0.54175">
        <ele>122.71</ele>
        <time>2014-01-12T14:15:01Z</time>
      </trkpt>
      <trkpt lat="44.89705" lon="0.54175">
        <ele>122.22</ele>
        <time>2014-01-12T14:15:04Z</time>
      </trkpt>
      <trkpt lat="44.89721" lon="0.54178">
        <ele>121.74</ele>
        <time>2014-01-12T14:15:17Z</time>
      </trkpt>
      <trkpt lat="44.89732" lon="0.5418">
        <ele>122.22</ele>
        <time>2014-01-12T14:15:27Z</time>
      </trkpt>
      <trkpt lat="44.89745" lon="0.54187">
        <ele>121.26</ele>
        <time>2014-01-12T14:15:40Z</time>
      </trkpt>
      <trkpt lat="44.89761" lon="0.54186">
        <ele>121.74</ele>
        <time>2014-01-12T14:15:52Z</time>
      </trkpt>
      <trkpt lat="44.89773" lon="0.54188">
        <ele>121.26</ele>
        <time>2014-01-12T14:16:03Z</time>
      </trkpt>
      <trkpt lat="44.89776" lon="0.54189">
        <ele>120.78</ele>
        <time>2014-01-12T14:16:05Z</time>
      </trkpt>
      <trkpt lat="44.89794" lon="0.5419">
        <ele>121.26</ele>
        <time>2014-01-12T14:16:19Z</time>
      </trkpt>
      <trkpt lat="44.89813" lon="0.54188">
        <ele>120.78</ele>
        <time>2014-01-12T14:16:34Z</time>
      </trkpt>
      <trkpt lat="44.89819" lon="0.54187">
        <ele>120.78</ele>
        <time>2014-01-12T14:16:39Z</time>
      </trkpt>
      <trkpt lat="44.89836" lon="0.54177">
        <ele>120.78</ele>
        <time>2014-01-12T14:16:58Z</time>
      </trkpt>
      <trkpt lat="44.89853" lon="0.54177">
        <ele>120.78</ele>
        <time>2014-01-12T14:17:12Z</time>
      </trkpt>
      <trkpt lat="44.89864" lon="0.54175">
        <ele>120.3</ele>
        <time>2014-01-12T14:17:21Z</time>
      </trkpt>
      <trkpt lat="44.89877" lon="0.5417">
        <ele>120.3</ele>
        <time>2014-01-12T14:17:32Z</time>
      </trkpt>
      <trkpt lat="44.89897" lon="0.54174">
        <ele>118.86</ele>
        <time>2014-01-12T14:17:48Z</time>
      </trkpt>
      <trkpt lat="44.89903" lon="0.54176">
        <ele>118.86</ele>
        <time>2014-01-12T14:17:53Z</time>
      </trkpt>
      <trkpt lat="44.89911" lon="0.54175">
        <ele>118.86</ele>
        <time>2014-01-12T14:17:59Z</time>
      </trkpt>
      <trkpt lat="44.8993" lon="0.54162">
        <ele>119.34</ele>
        <time>2014-01-12T14:18:11Z</time>
      </trkpt>
      <trkpt lat="44.89932" lon="0.54161">
        <ele>117.9</ele>
        <time>2014-01-12T14:18:13Z</time>
      </trkpt>
      <trkpt lat="44.89947" lon="0.54152">
        <ele>118.38</ele>
        <time>2014-01-12T14:18:28Z</time>
      </trkpt>
      <trkpt lat="44.89963" lon="0.5414">
        <ele>118.38</ele>
        <time>2014-01-12T14:18:43Z</time>
      </trkpt>
      <trkpt lat="44.89973" lon="0.54132">
        <ele>118.38</ele>
        <time>2014-01-12T14:18:52Z</time>
      </trkpt>
      <trkpt lat="44.89987" lon="0.54121">
        <ele>117.9</ele>
        <time>2014-01-12T14:19:04Z</time>
      </trkpt>
      <trkpt lat="44.9" lon="0.54111">
        <ele>117.9</ele>
        <time>2014-01-12T14:19:19Z</time>
      </trkpt>
      <trkpt lat="44.90015" lon="0.54099">
        <ele>117.9</ele>
        <time>2014-01-12T14:19:34Z</time>
      </trkpt>
      <trkpt lat="44.90028" lon="0.54086">
        <ele>118.38</ele>
        <time>2014-01-12T14:19:47Z</time>
      </trkpt>
      <trkpt lat="44.9004" lon="0.54072">
        <ele>118.38</ele>
        <time>2014-01-12T14:19:59Z</time>
      </trkpt>
      <trkpt lat="44.90049" lon="0.54064">
        <ele>118.86</ele>
        <time>2014-01-12T14:20:08Z</time>
      </trkpt>
      <trkpt lat="44.90053" lon="0.54061">
        <ele>119.82</ele>
        <time>2014-01-12T14:20:13Z</time>
      </trkpt>
      <trkpt lat="44.90064" lon="0.54053">
        <ele>119.82</ele>
        <time>2014-01-12T14:20:25Z</time>
      </trkpt>
      <trkpt lat="44.90071" lon="0.54047">
        <ele>120.3</ele>
        <time>2014-01-12T14:20:41Z</time>
      </trkpt>
      <trkpt lat="44.90088" lon="0.54038">
        <ele>120.78</ele>
        <time>2014-01-12T14:20:58Z</time>
      </trkpt>
      <trkpt lat="44.90102" lon="0.54021">
        <ele>120.78</ele>
        <time>2014-01-12T14:21:13Z</time>
      </trkpt>
      <trkpt lat="44.90103" lon="0.54017">
        <ele>120.3</ele>
        <time>2014-01-12T14:21:15Z</time>
      </trkpt>
      <trkpt lat="44.90106" lon="0.54003">
        <ele>120.78</ele>
        <time>2014-01-12T14:21:23Z</time>
      </trkpt>
      <trkpt lat="44.90117" lon="0.53984">
        <ele>119.34</ele>
        <time>2014-01-12T14:21:34Z</time>
      </trkpt>
      <trkpt lat="44.90124" lon="0.5397">
        <ele>118.38</ele>
        <time>2014-01-12T14:21:46Z</time>
      </trkpt>
      <trkpt lat="44.90134" lon="0.53954">
        <ele>118.38</ele>
        <time>2014-01-12T14:22:01Z</time>
      </trkpt>
      <trkpt lat="44.90136" lon="0.53947">
        <ele>117.42</ele>
        <time>2014-01-12T14:22:06Z</time>
      </trkpt>
      <trkpt lat="44.90145" lon="0.53937">
        <ele>116.94</ele>
        <time>2014-01-12T14:22:16Z</time>
      </trkpt>
      <trkpt lat="44.90161" lon="0.53924">
        <ele>116.46</ele>
        <time>2014-01-12T14:22:30Z</time>
      </trkpt>
      <trkpt lat="44.90163" lon="0.53921">
        <ele>116.46</ele>
        <time>2014-01-12T14:22:32Z</time>
      </trkpt>
      <trkpt lat="44.90165" lon="0.53917">
        <ele>115.98</ele>
        <time>2014-01-12T14:22:34Z</time>
      </trkpt>
      <trkpt lat="44.90177" lon="0.53899">
        <ele>115.98</ele>
        <time>2014-01-12T14:22:49Z</time>
      </trkpt>
      <trkpt lat="44.90188" lon="0.53885">
        <ele>116.46</ele>
        <time>2014-01-12T14:23:01Z</time>
      </trkpt>
      <trkpt lat="44.90194" lon="0.53877">
        <ele>116.94</ele>
        <time>2014-01-12T14:23:08Z</time>
      </trkpt>
      <trkpt lat="44.90206" lon="0.53859">
        <ele>116.94</ele>
        <time>2014-01-12T14:23:22Z</time>
      </trkpt>
      <trkpt lat="44.9022" lon="0.53837">
        <ele>118.38</ele>
        <time>2014-01-12T14:23:38Z</time>
      </trkpt>
      <trkpt lat="44.90229" lon="0.53818">
        <ele>117.9</ele>
        <time>2014-01-12T14:23:52Z</time>
      </trkpt>
      <trkpt lat="44.90234" lon="0.53805">
        <ele>118.86</ele>
        <time>2014-01-12T14:24:00Z</time>
      </trkpt>
      <trkpt lat="44.90237" lon="0.53784">
        <ele>119.34</ele>
        <time>2014-01-12T14:24:12Z</time>
      </trkpt>
      <trkpt lat="44.9024" lon="0.53762">
        <ele>120.3</ele>
        <time>2014-01-12T14:24:25Z</time>
      </trkpt>
      <trkpt lat="44.9024" lon="0.5376">
        <ele>120.78</ele>
        <time>2014-01-12T14:24:27Z</time>
      </trkpt>
      <trkpt lat="44.9024" lon="0.53748">
        <ele>121.26</ele>
        <time>2014-01-12T14:24:36Z</time>
      </trkpt>
      <trkpt lat="44.90239" lon="0.53739">
        <ele>121.74</ele>
        <time>2014-01-12T14:24:41Z</time>
      </trkpt>
      <trkpt lat="44.90241" lon="0.5372">
        <ele>121.74</ele>
        <time>2014-01-12T14:24:53Z</time>
      </trkpt>
      <trkpt lat="44.9024" lon="0.53699">
        <ele>123.19</ele>
        <time>2014-01-12T14:25:05Z</time>
      </trkpt>
      <trkpt lat="44.9024" lon="0.53684">
        <ele>123.67</ele>
        <time>2014-01-12T14:25:12Z</time>
      </trkpt>
      <trkpt lat="44.90244" lon="0.53664">
        <ele>122.71</ele>
        <time>2014-01-12T14:25:26Z</time>
      </trkpt>
      <trkpt lat="44.90243" lon="0.5365">
        <ele>123.19</ele>
        <time>2014-01-12T14:25:34Z</time>
      </trkpt>
      <trkpt lat="44.90246" lon="0.53643">
        <ele>123.19</ele>
        <time>2014-01-12T14:25:51Z</time>
      </trkpt>
      <trkpt lat="44.90249" lon="0.53641">
        <ele>123.19</ele>
        <time>2014-01-12T14:26:13Z</time>
      </trkpt>
      <trkpt lat="44.90249" lon="0.53627">
        <ele>124.15</ele>
        <time>2014-01-12T14:26:26Z</time>
      </trkpt>
      <trkpt lat="44.90251" lon="0.53611">
        <ele>124.15</ele>
        <time>2014-01-12T14:26:37Z</time>
      </trkpt>
      <trkpt lat="44.90257" lon="0.53594">
        <ele>124.15</ele>
        <time>2014-01-12T14:26:49Z</time>
      </trkpt>
      <trkpt lat="44.9026" lon="0.53579">
        <ele>124.15</ele>
        <time>2014-01-12T14:27:04Z</time>
      </trkpt>
      <trkpt lat="44.9026" lon="0.53569">
        <ele>123.19</ele>
        <time>2014-01-12T14:27:19Z</time>
      </trkpt>
      <trkpt lat="44.9026" lon="0.53552">
        <ele>122.71</ele>
        <time>2014-01-12T14:27:35Z</time>
      </trkpt>
      <trkpt lat="44.90265" lon="0.53541">
        <ele>123.19</ele>
        <time>2014-01-12T14:27:50Z</time>
      </trkpt>
      <trkpt lat="44.9027" lon="0.53545">
        <ele>123.67</ele>
        <time>2014-01-12T14:28:03Z</time>
      </trkpt>
      <trkpt lat="44.90269" lon="0.53559">
        <ele>124.15</ele>
        <time>2014-01-12T14:28:11Z</time>
      </trkpt>
      <trkpt lat="44.90269" lon="0.53572">
        <ele>125.11</ele>
        <time>2014-01-12T14:28:20Z</time>
      </trkpt>
      <trkpt lat="44.90272" lon="0.53592">
        <ele>124.63</ele>
        <time>2014-01-12T14:28:32Z</time>
      </trkpt>
      <trkpt lat="44.90275" lon="0.53602">
        <ele>124.63</ele>
        <time>2014-01-12T14:28:38Z</time>
      </trkpt>
      <trkpt lat="44.90274" lon="0.53627">
        <ele>123.67</ele>
        <time>2014-01-12T14:28:52Z</time>
      </trkpt>
      <trkpt lat="44.90275" lon="0.53637">
        <ele>123.67</ele>
        <time>2014-01-12T14:28:58Z</time>
      </trkpt>
      <trkpt lat="44.90277" lon="0.53646">
        <ele>124.63</ele>
        <time>2014-01-12T14:29:07Z</time>
      </trkpt>
      <trkpt lat="44.90278" lon="0.53653">
        <ele>123.67</ele>
        <time>2014-01-12T14:29:12Z</time>
      </trkpt>
      <trkpt lat="44.9028" lon="0.53656">
        <ele>123.19</ele>
        <time>2014-01-12T14:29:15Z</time>
      </trkpt>
      <trkpt lat="44.9029" lon="0.53665">
        <ele>122.22</ele>
        <time>2014-01-12T14:29:28Z</time>
      </trkpt>
      <trkpt lat="44.90296" lon="0.53671">
        <ele>121.26</ele>
        <time>2014-01-12T14:29:56Z</time>
      </trkpt>
      <trkpt lat="44.90299" lon="0.53666">
        <ele>121.74</ele>
        <time>2014-01-12T14:30:20Z</time>
      </trkpt>
      <trkpt lat="44.90295" lon="0.53665">
        <ele>121.26</ele>
        <time>2014-01-12T14:30:31Z</time>
      </trkpt>
      <trkpt lat="44.90294" lon="0.53668">
        <ele>121.74</ele>
        <time>2014-01-12T14:30:47Z</time>
      </trkpt>
      <trkpt lat="44.90296" lon="0.53668">
        <ele>120.3</ele>
        <time>2014-01-12T14:31:07Z</time>
      </trkpt>
      <trkpt lat="44.90307" lon="0.53678">
        <ele>120.3</ele>
        <time>2014-01-12T14:31:23Z</time>
      </trkpt>
      <trkpt lat="44.90321" lon="0.53695">
        <ele>116.94</ele>
        <time>2014-01-12T14:31:39Z</time>
      </trkpt>
      <trkpt lat="44.90325" lon="0.53699">
        <ele>117.9</ele>
        <time>2014-01-12T14:31:44Z</time>
      </trkpt>
      <trkpt lat="44.90335" lon="0.53713">
        <ele>116.94</ele>
        <time>2014-01-12T14:31:58Z</time>
      </trkpt>
      <trkpt lat="44.90337" lon="0.53717">
        <ele>117.42</ele>
        <time>2014-01-12T14:32:02Z</time>
      </trkpt>
      <trkpt lat="44.90346" lon="0.53725">
        <ele>114.53</ele>
        <time>2014-01-12T14:32:11Z</time>
      </trkpt>
      <trkpt lat="44.90356" lon="0.53732">
        <ele>115.5</ele>
        <time>2014-01-12T14:32:20Z</time>
      </trkpt>
      <trkpt lat="44.90369" lon="0.53739">
        <ele>114.53</ele>
        <time>2014-01-12T14:32:34Z</time>
      </trkpt>
      <trkpt lat="44.90374" lon="0.53743">
        <ele>114.53</ele>
        <time>2014-01-12T14:32:40Z</time>
      </trkpt>
      <trkpt lat="44.90378" lon="0.53745">
        <ele>114.53</ele>
        <time>2014-01-12T14:32:44Z</time>
      </trkpt>
      <trkpt lat="44.90387" lon="0.53748">
        <ele>114.05</ele>
        <time>2014-01-12T14:32:51Z</time>
      </trkpt>
      <trkpt lat="44.90395" lon="0.53753">
        <ele>113.57</ele>
        <time>2014-01-12T14:33:00Z</time>
      </trkpt>
      <trkpt lat="44.90408" lon="0.53762">
        <ele>111.17</ele>
        <time>2014-01-12T14:33:13Z</time>
      </trkpt>
      <trkpt lat="44.9042" lon="0.53768">
        <ele>109.73</ele>
        <time>2014-01-12T14:33:28Z</time>
      </trkpt>
      <trkpt lat="44.90432" lon="0.53778">
        <ele>106.84</ele>
        <time>2014-01-12T14:33:44Z</time>
      </trkpt>
      <trkpt lat="44.90444" lon="0.53782">
        <ele>105.4</ele>
        <time>2014-01-12T14:33:58Z</time>
      </trkpt>
      <trkpt lat="44.90458" lon="0.53784">
        <ele>104.44</ele>
        <time>2014-01-12T14:34:14Z</time>
      </trkpt>
      <trkpt lat="44.90468" lon="0.53789">
        <ele>102.04</ele>
        <time>2014-01-12T14:34:28Z</time>
      </trkpt>
      <trkpt lat="44.90478" lon="0.53797">
        <ele>100.6</ele>
        <time>2014-01-12T14:34:41Z</time>
      </trkpt>
      <trkpt lat="44.90489" lon="0.53799">
        <ele>98.67</ele>
        <time>2014-01-12T14:34:55Z</time>
      </trkpt>
      <trkpt lat="44.90501" lon="0.53806">
        <ele>97.23</ele>
        <time>2014-01-12T14:35:12Z</time>
      </trkpt>
      <trkpt lat="44.90517" lon="0.53814">
        <ele>94.35</ele>
        <time>2014-01-12T14:35:31Z</time>
      </trkpt>
      <trkpt lat="44.90529" lon="0.53819">
        <ele>92.9</ele>
        <time>2014-01-12T14:35:45Z</time>
      </trkpt>
      <trkpt lat="44.90536" lon="0.53819">
        <ele>91.46</ele>
        <time>2014-01-12T14:35:54Z</time>
      </trkpt>
      <trkpt lat="44.90551" lon="0.53823">
        <ele>90.98</ele>
        <time>2014-01-12T14:36:09Z</time>
      </trkpt>
      <trkpt lat="44.90559" lon="0.53825">
        <ele>89.54</ele>
        <time>2014-01-12T14:36:15Z</time>
      </trkpt>
      <trkpt lat="44.9057" lon="0.53832">
        <ele>89.06</ele>
        <time>2014-01-12T14:36:31Z</time>
      </trkpt>
      <trkpt lat="44.90583" lon="0.53839">
        <ele>87.14</ele>
        <time>2014-01-12T14:36:44Z</time>
      </trkpt>
      <trkpt lat="44.90595" lon="0.53844">
        <ele>86.66</ele>
        <time>2014-01-12T14:36:57Z</time>
      </trkpt>
      <trkpt lat="44.90605" lon="0.53846">
        <ele>85.21</ele>
        <time>2014-01-12T14:37:06Z</time>
      </trkpt>
      <trkpt lat="44.90622" lon="0.53848">
        <ele>83.77</ele>
        <time>2014-01-12T14:37:24Z</time>
      </trkpt>
      <trkpt lat="44.90633" lon="0.53853">
        <ele>83.29</ele>
        <time>2014-01-12T14:37:39Z</time>
      </trkpt>
      <trkpt lat="44.90652" lon="0.5386">
        <ele>82.33</ele>
        <time>2014-01-12T14:37:52Z</time>
      </trkpt>
      <trkpt lat="44.90668" lon="0.53863">
        <ele>81.37</ele>
        <time>2014-01-12T14:38:08Z</time>
      </trkpt>
      <trkpt lat="44.90684" lon="0.53872">
        <ele>80.89</ele>
        <time>2014-01-12T14:38:25Z</time>
      </trkpt>
      <trkpt lat="44.90703" lon="0.5389">
        <ele>79.45</ele>
        <time>2014-01-12T14:38:44Z</time>
      </trkpt>
      <trkpt lat="44.90721" lon="0.539">
        <ele>78.97</ele>
        <time>2014-01-12T14:39:01Z</time>
      </trkpt>
      <trkpt lat="44.90723" lon="0.53899">
        <ele>78.48</ele>
        <time>2014-01-12T14:39:03Z</time>
      </trkpt>
      <trkpt lat="44.9073" lon="0.53893">
        <ele>78.48</ele>
        <time>2014-01-12T14:39:09Z</time>
      </trkpt>
      <trkpt lat="44.90733" lon="0.5388">
        <ele>78.97</ele>
        <time>2014-01-12T14:39:16Z</time>
      </trkpt>
      <trkpt lat="44.90721" lon="0.5386">
        <ele>80.41</ele>
        <time>2014-01-12T14:39:30Z</time>
      </trkpt>
      <trkpt lat="44.90711" lon="0.53844">
        <ele>81.37</ele>
        <time>2014-01-12T14:39:44Z</time>
      </trkpt>
      <trkpt lat="44.90709" lon="0.53838">
        <ele>81.85</ele>
        <time>2014-01-12T14:39:49Z</time>
      </trkpt>
      <trkpt lat="44.9071" lon="0.53832">
        <ele>83.77</ele>
        <time>2014-01-12T14:39:54Z</time>
      </trkpt>
      <trkpt lat="44.90711" lon="0.53827">
        <ele>83.29</ele>
        <time>2014-01-12T14:39:58Z</time>
      </trkpt>
      <trkpt lat="44.90712" lon="0.53822">
        <ele>83.29</ele>
        <time>2014-01-12T14:40:02Z</time>
      </trkpt>
      <trkpt lat="44.90714" lon="0.53812">
        <ele>83.77</ele>
        <time>2014-01-12T14:40:13Z</time>
      </trkpt>
      <trkpt lat="44.90715" lon="0.53798">
        <ele>85.21</ele>
        <time>2014-01-12T14:40:26Z</time>
      </trkpt>
      <trkpt lat="44.90717" lon="0.53793">
        <ele>85.21</ele>
        <time>2014-01-12T14:40:30Z</time>
      </trkpt>
      <trkpt lat="44.9072" lon="0.5379">
        <ele>84.73</ele>
        <time>2014-01-12T14:40:35Z</time>
      </trkpt>
      <trkpt lat="44.90723" lon="0.53784">
        <ele>86.18</ele>
        <time>2014-01-12T14:40:47Z</time>
      </trkpt>
      <trkpt lat="44.90723" lon="0.53783">
        <ele>86.18</ele>
        <time>2014-01-12T14:40:48Z</time>
      </trkpt>
      <trkpt lat="44.90728" lon="0.53765">
        <ele>86.18</ele>
        <time>2014-01-12T14:41:01Z</time>
      </trkpt>
      <trkpt lat="44.90728" lon="0.53763">
        <ele>85.69</ele>
        <time>2014-01-12T14:41:02Z</time>
      </trkpt>
      <trkpt lat="44.90728" lon="0.5376">
        <ele>85.69</ele>
        <time>2014-01-12T14:41:04Z</time>
      </trkpt>
      <trkpt lat="44.90731" lon="0.53737">
        <ele>85.21</ele>
        <time>2014-01-12T14:41:20Z</time>
      </trkpt>
      <trkpt lat="44.9073" lon="0.53721">
        <ele>85.69</ele>
        <time>2014-01-12T14:41:37Z</time>
      </trkpt>
      <trkpt lat="44.90727" lon="0.53697">
        <ele>87.62</ele>
        <time>2014-01-12T14:41:51Z</time>
      </trkpt>
      <trkpt lat="44.90725" lon="0.53688">
        <ele>87.14</ele>
        <time>2014-01-12T14:41:56Z</time>
      </trkpt>
      <trkpt lat="44.9073" lon="0.53665">
        <ele>88.1</ele>
        <time>2014-01-12T14:42:11Z</time>
      </trkpt>
      <trkpt lat="44.90734" lon="0.53635">
        <ele>90.98</ele>
        <time>2014-01-12T14:42:31Z</time>
      </trkpt>
      <trkpt lat="44.90734" lon="0.53634">
        <ele>90.98</ele>
        <time>2014-01-12T14:42:32Z</time>
      </trkpt>
      <trkpt lat="44.90733" lon="0.53613">
        <ele>92.9</ele>
        <time>2014-01-12T14:42:49Z</time>
      </trkpt>
      <trkpt lat="44.90732" lon="0.53592">
        <ele>95.31</ele>
        <time>2014-01-12T14:43:09Z</time>
      </trkpt>
      <trkpt lat="44.90742" lon="0.53575">
        <ele>97.71</ele>
        <time>2014-01-12T14:43:27Z</time>
      </trkpt>
      <trkpt lat="44.90757" lon="0.53587">
        <ele>99.15</ele>
        <time>2014-01-12T14:43:47Z</time>
      </trkpt>
      <trkpt lat="44.90769" lon="0.53591">
        <ele>101.08</ele>
        <time>2014-01-12T14:44:04Z</time>
      </trkpt>
      <trkpt lat="44.90786" lon="0.53592">
        <ele>102.04</ele>
        <time>2014-01-12T14:44:20Z</time>
      </trkpt>
      <trkpt lat="44.908" lon="0.53595">
        <ele>102.52</ele>
        <time>2014-01-12T14:44:33Z</time>
      </trkpt>
      <trkpt lat="44.90809" lon="0.53595">
        <ele>103</ele>
        <time>2014-01-12T14:44:49Z</time>
      </trkpt>
      <trkpt lat="44.9081" lon="0.53591">
        <ele>103</ele>
        <time>2014-01-12T14:45:18Z</time>
      </trkpt>
      <trkpt lat="44.9081" lon="0.53588">
        <ele>103</ele>
        <time>2014-01-12T14:45:23Z</time>
      </trkpt>
      <trkpt lat="44.9081" lon="0.53585">
        <ele>103</ele>
        <time>2014-01-12T14:45:48Z</time>
      </trkpt>
      <trkpt lat="44.90811" lon="0.53575">
        <ele>103.96</ele>
        <time>2014-01-12T14:46:02Z</time>
      </trkpt>
      <trkpt lat="44.90812" lon="0.53559">
        <ele>103.48</ele>
        <time>2014-01-12T14:46:14Z</time>
      </trkpt>
      <trkpt lat="44.90814" lon="0.53547">
        <ele>103.96</ele>
        <time>2014-01-12T14:46:23Z</time>
      </trkpt>
      <trkpt lat="44.90814" lon="0.53546">
        <ele>104.44</ele>
        <time>2014-01-12T14:46:24Z</time>
      </trkpt>
      <trkpt lat="44.90814" lon="0.53537">
        <ele>104.92</ele>
        <time>2014-01-12T14:46:30Z</time>
      </trkpt>
      <trkpt lat="44.90815" lon="0.53531">
        <ele>105.4</ele>
        <time>2014-01-12T14:46:34Z</time>
      </trkpt>
      <trkpt lat="44.90815" lon="0.53513">
        <ele>104.92</ele>
        <time>2014-01-12T14:46:48Z</time>
      </trkpt>
      <trkpt lat="44.90816" lon="0.5349">
        <ele>106.84</ele>
        <time>2014-01-12T14:47:04Z</time>
      </trkpt>
      <trkpt lat="44.90816" lon="0.53478">
        <ele>107.81</ele>
        <time>2014-01-12T14:47:14Z</time>
      </trkpt>
      <trkpt lat="44.90824" lon="0.53466">
        <ele>108.77</ele>
        <time>2014-01-12T14:47:27Z</time>
      </trkpt>
      <trkpt lat="44.90835" lon="0.53459">
        <ele>108.29</ele>
        <time>2014-01-12T14:47:39Z</time>
      </trkpt>
      <trkpt lat="44.90847" lon="0.53454">
        <ele>108.77</ele>
        <time>2014-01-12T14:47:52Z</time>
      </trkpt>
      <trkpt lat="44.90861" lon="0.5344">
        <ele>107.81</ele>
        <time>2014-01-12T14:48:07Z</time>
      </trkpt>
      <trkpt lat="44.90872" lon="0.53421">
        <ele>109.25</ele>
        <time>2014-01-12T14:48:24Z</time>
      </trkpt>
      <trkpt lat="44.90883" lon="0.53403">
        <ele>107.32</ele>
        <time>2014-01-12T14:48:40Z</time>
      </trkpt>
      <trkpt lat="44.90892" lon="0.53389">
        <ele>106.84</ele>
        <time>2014-01-12T14:48:54Z</time>
      </trkpt>
      <trkpt lat="44.90905" lon="0.53374">
        <ele>104.92</ele>
        <time>2014-01-12T14:49:08Z</time>
      </trkpt>
      <trkpt lat="44.90913" lon="0.53375">
        <ele>103</ele>
        <time>2014-01-12T14:49:17Z</time>
      </trkpt>
      <trkpt lat="44.9093" lon="0.53371">
        <ele>101.56</ele>
        <time>2014-01-12T14:49:31Z</time>
      </trkpt>
      <trkpt lat="44.90943" lon="0.53346">
        <ele>100.11</ele>
        <time>2014-01-12T14:49:46Z</time>
      </trkpt>
      <trkpt lat="44.90947" lon="0.53333">
        <ele>100.6</ele>
        <time>2014-01-12T14:49:54Z</time>
      </trkpt>
      <trkpt lat="44.90954" lon="0.53321">
        <ele>100.11</ele>
        <time>2014-01-12T14:50:02Z</time>
      </trkpt>
      <trkpt lat="44.9096" lon="0.53307">
        <ele>100.11</ele>
        <time>2014-01-12T14:50:12Z</time>
      </trkpt>
      <trkpt lat="44.90961" lon="0.533">
        <ele>99.15</ele>
        <time>2014-01-12T14:50:16Z</time>
      </trkpt>
      <trkpt lat="44.90964" lon="0.53294">
        <ele>99.15</ele>
        <time>2014-01-12T14:50:21Z</time>
      </trkpt>
      <trkpt lat="44.90969" lon="0.53278">
        <ele>98.67</ele>
        <time>2014-01-12T14:50:32Z</time>
      </trkpt>
      <trkpt lat="44.90977" lon="0.53259">
        <ele>97.71</ele>
        <time>2014-01-12T14:50:46Z</time>
      </trkpt>
      <trkpt lat="44.90985" lon="0.53236">
        <ele>98.19</ele>
        <time>2014-01-12T14:51:02Z</time>
      </trkpt>
      <trkpt lat="44.9099" lon="0.53224">
        <ele>98.19</ele>
        <time>2014-01-12T14:51:10Z</time>
      </trkpt>
      <trkpt lat="44.90992" lon="0.53219">
        <ele>97.71</ele>
        <time>2014-01-12T14:51:14Z</time>
      </trkpt>
      <trkpt lat="44.91" lon="0.53197">
        <ele>97.23</ele>
        <time>2014-01-12T14:51:30Z</time>
      </trkpt>
      <trkpt lat="44.91003" lon="0.53187">
        <ele>96.27</ele>
        <time>2014-01-12T14:51:43Z</time>
      </trkpt>
      <trkpt lat="44.91009" lon="0.53168">
        <ele>95.31</ele>
        <time>2014-01-12T14:51:59Z</time>
      </trkpt>
      <trkpt lat="44.91014" lon="0.53153">
        <ele>93.39</ele>
        <time>2014-01-12T14:52:12Z</time>
      </trkpt>
      <trkpt lat="44.91015" lon="0.53146">
        <ele>92.9</ele>
        <time>2014-01-12T14:52:17Z</time>
      </trkpt>
      <trkpt lat="44.91021" lon="0.53131">
        <ele>91.46</ele>
        <time>2014-01-12T14:52:28Z</time>
      </trkpt>
      <trkpt lat="44.91022" lon="0.53121">
        <ele>90.02</ele>
        <time>2014-01-12T14:52:34Z</time>
      </trkpt>
      <trkpt lat="44.91021" lon="0.53111">
        <ele>90.98</ele>
        <time>2014-01-12T14:52:40Z</time>
      </trkpt>
      <trkpt lat="44.91019" lon="0.53107">
        <ele>90.5</ele>
        <time>2014-01-12T14:52:43Z</time>
      </trkpt>
      <trkpt lat="44.91017" lon="0.53104">
        <ele>90.5</ele>
        <time>2014-01-12T14:52:45Z</time>
      </trkpt>
      <trkpt lat="44.91009" lon="0.53092">
        <ele>90.02</ele>
        <time>2014-01-12T14:52:58Z</time>
      </trkpt>
      <trkpt lat="44.91003" lon="0.53077">
        <ele>90.02</ele>
        <time>2014-01-12T14:53:09Z</time>
      </trkpt>
      <trkpt lat="44.90994" lon="0.53056">
        <ele>89.54</ele>
        <time>2014-01-12T14:53:23Z</time>
      </trkpt>
      <trkpt lat="44.9099" lon="0.53041">
        <ele>90.5</ele>
        <time>2014-01-12T14:53:35Z</time>
      </trkpt>
      <trkpt lat="44.90989" lon="0.53037">
        <ele>90.02</ele>
        <time>2014-01-12T14:53:38Z</time>
      </trkpt>
      <trkpt lat="44.90984" lon="0.53015">
        <ele>89.06</ele>
        <time>2014-01-12T14:53:54Z</time>
      </trkpt>
      <trkpt lat="44.9098" lon="0.52999">
        <ele>88.58</ele>
        <time>2014-01-12T14:54:05Z</time>
      </trkpt>
      <trkpt lat="44.90977" lon="0.52982">
        <ele>88.1</ele>
        <time>2014-01-12T14:54:18Z</time>
      </trkpt>
      <trkpt lat="44.90975" lon="0.52974">
        <ele>87.14</ele>
        <time>2014-01-12T14:54:24Z</time>
      </trkpt>
      <trkpt lat="44.90979" lon="0.52959">
        <ele>86.66</ele>
        <time>2014-01-12T14:54:39Z</time>
      </trkpt>
      <trkpt lat="44.90982" lon="0.52959">
        <ele>86.18</ele>
        <time>2014-01-12T14:54:43Z</time>
      </trkpt>
      <trkpt lat="44.90995" lon="0.52969">
        <ele>86.18</ele>
        <time>2014-01-12T14:54:58Z</time>
      </trkpt>
      <trkpt lat="44.91" lon="0.52968">
        <ele>85.21</ele>
        <time>2014-01-12T14:55:04Z</time>
      </trkpt>
      <trkpt lat="44.91004" lon="0.52969">
        <ele>86.18</ele>
        <time>2014-01-12T14:55:09Z</time>
      </trkpt>
      <trkpt lat="44.9102" lon="0.5298">
        <ele>87.62</ele>
        <time>2014-01-12T14:55:25Z</time>
      </trkpt>
      <trkpt lat="44.91024" lon="0.52984">
        <ele>88.58</ele>
        <time>2014-01-12T14:55:37Z</time>
      </trkpt>
      <trkpt lat="44.91025" lon="0.52987">
        <ele>88.1</ele>
        <time>2014-01-12T14:55:40Z</time>
      </trkpt>
      <trkpt lat="44.91032" lon="0.52992">
        <ele>88.58</ele>
        <time>2014-01-12T14:55:47Z</time>
      </trkpt>
      <trkpt lat="44.91043" lon="0.52997">
        <ele>88.58</ele>
        <time>2014-01-12T14:55:57Z</time>
      </trkpt>
      <trkpt lat="44.91055" lon="0.53003">
        <ele>89.54</ele>
        <time>2014-01-12T14:56:07Z</time>
      </trkpt>
      <trkpt lat="44.91057" lon="0.53003">
        <ele>90.98</ele>
        <time>2014-01-12T14:56:09Z</time>
      </trkpt>
      <trkpt lat="44.91061" lon="0.53002">
        <ele>90.02</ele>
        <time>2014-01-12T14:56:12Z</time>
      </trkpt>
      <trkpt lat="44.9108" lon="0.52993">
        <ele>92.9</ele>
        <time>2014-01-12T14:56:27Z</time>
      </trkpt>
      <trkpt lat="44.91092" lon="0.52989">
        <ele>93.39</ele>
        <time>2014-01-12T14:56:38Z</time>
      </trkpt>
      <trkpt lat="44.91102" lon="0.52986">
        <ele>94.83</ele>
        <time>2014-01-12T14:56:49Z</time>
      </trkpt>
      <trkpt lat="44.9111" lon="0.52983">
        <ele>95.79</ele>
        <time>2014-01-12T14:56:56Z</time>
      </trkpt>
      <trkpt lat="44.91114" lon="0.52981">
        <ele>95.31</ele>
        <time>2014-01-12T14:57:02Z</time>
      </trkpt>
      <trkpt lat="44.91121" lon="0.52968">
        <ele>96.27</ele>
        <time>2014-01-12T14:57:13Z</time>
      </trkpt>
      <trkpt lat="44.91126" lon="0.5295">
        <ele>96.27</ele>
        <time>2014-01-12T14:57:24Z</time>
      </trkpt>
      <trkpt lat="44.91129" lon="0.52943">
        <ele>96.75</ele>
        <time>2014-01-12T14:57:28Z</time>
      </trkpt>
      <trkpt lat="44.91131" lon="0.52936">
        <ele>97.71</ele>
        <time>2014-01-12T14:57:32Z</time>
      </trkpt>
      <trkpt lat="44.91132" lon="0.52933">
        <ele>97.23</ele>
        <time>2014-01-12T14:57:34Z</time>
      </trkpt>
      <trkpt lat="44.91138" lon="0.52914">
        <ele>98.19</ele>
        <time>2014-01-12T14:57:47Z</time>
      </trkpt>
      <trkpt lat="44.91142" lon="0.52903">
        <ele>98.19</ele>
        <time>2014-01-12T14:57:55Z</time>
      </trkpt>
      <trkpt lat="44.9115" lon="0.52883">
        <ele>99.63</ele>
        <time>2014-01-12T14:58:10Z</time>
      </trkpt>
      <trkpt lat="44.91156" lon="0.52866">
        <ele>100.11</ele>
        <time>2014-01-12T14:58:22Z</time>
      </trkpt>
      <trkpt lat="44.91157" lon="0.52857">
        <ele>100.11</ele>
        <time>2014-01-12T14:58:28Z</time>
      </trkpt>
      <trkpt lat="44.9116" lon="0.52841">
        <ele>101.08</ele>
        <time>2014-01-12T14:58:38Z</time>
      </trkpt>
      <trkpt lat="44.9116" lon="0.52831">
        <ele>102.04</ele>
        <time>2014-01-12T14:58:51Z</time>
      </trkpt>
      <trkpt lat="44.91159" lon="0.52825">
        <ele>102.04</ele>
        <time>2014-01-12T14:59:10Z</time>
      </trkpt>
      <trkpt lat="44.91159" lon="0.52824">
        <ele>101.08</ele>
        <time>2014-01-12T14:59:11Z</time>
      </trkpt>
      <trkpt lat="44.91158" lon="0.52822">
        <ele>102.52</ele>
        <time>2014-01-12T14:59:13Z</time>
      </trkpt>
      <trkpt lat="44.91154" lon="0.52806">
        <ele>102.52</ele>
        <time>2014-01-12T14:59:26Z</time>
      </trkpt>
      <trkpt lat="44.91153" lon="0.52802">
        <ele>103</ele>
        <time>2014-01-12T14:59:30Z</time>
      </trkpt>
      <trkpt lat="44.91147" lon="0.52781">
        <ele>103.48</ele>
        <time>2014-01-12T14:59:44Z</time>
      </trkpt>
      <trkpt lat="44.91145" lon="0.5277">
        <ele>104.44</ele>
        <time>2014-01-12T14:59:51Z</time>
      </trkpt>
      <trkpt lat="44.91144" lon="0.52769">
        <ele>104.44</ele>
        <time>2014-01-12T14:59:52Z</time>
      </trkpt>
      <trkpt lat="44.91138" lon="0.52751">
        <ele>105.4</ele>
        <time>2014-01-12T15:00:04Z</time>
      </trkpt>
      <trkpt lat="44.91134" lon="0.52745">
        <ele>103.48</ele>
        <time>2014-01-12T15:00:09Z</time>
      </trkpt>
      <trkpt lat="44.91132" lon="0.52741">
        <ele>104.44</ele>
        <time>2014-01-12T15:00:12Z</time>
      </trkpt>
      <trkpt lat="44.9113" lon="0.52718">
        <ele>105.4</ele>
        <time>2014-01-12T15:00:27Z</time>
      </trkpt>
      <trkpt lat="44.91128" lon="0.52706">
        <ele>106.84</ele>
        <time>2014-01-12T15:00:36Z</time>
      </trkpt>
      <trkpt lat="44.91129" lon="0.52696">
        <ele>107.81</ele>
        <time>2014-01-12T15:00:43Z</time>
      </trkpt>
      <trkpt lat="44.91128" lon="0.52691">
        <ele>106.84</ele>
        <time>2014-01-12T15:00:47Z</time>
      </trkpt>
      <trkpt lat="44.91123" lon="0.52673">
        <ele>107.32</ele>
        <time>2014-01-12T15:00:59Z</time>
      </trkpt>
      <trkpt lat="44.91115" lon="0.52648">
        <ele>108.29</ele>
        <time>2014-01-12T15:01:15Z</time>
      </trkpt>
      <trkpt lat="44.91108" lon="0.5263">
        <ele>109.25</ele>
        <time>2014-01-12T15:01:28Z</time>
      </trkpt>
      <trkpt lat="44.91102" lon="0.52617">
        <ele>109.25</ele>
        <time>2014-01-12T15:01:38Z</time>
      </trkpt>
      <trkpt lat="44.91093" lon="0.52604">
        <ele>111.65</ele>
        <time>2014-01-12T15:01:49Z</time>
      </trkpt>
      <trkpt lat="44.91082" lon="0.52593">
        <ele>113.57</ele>
        <time>2014-01-12T15:02:00Z</time>
      </trkpt>
      <trkpt lat="44.91074" lon="0.52575">
        <ele>115.01</ele>
        <time>2014-01-12T15:02:15Z</time>
      </trkpt>
      <trkpt lat="44.91069" lon="0.52557">
        <ele>115.01</ele>
        <time>2014-01-12T15:02:28Z</time>
      </trkpt>
      <trkpt lat="44.91068" lon="0.52553">
        <ele>116.94</ele>
        <time>2014-01-12T15:02:31Z</time>
      </trkpt>
      <trkpt lat="44.91061" lon="0.52531">
        <ele>116.94</ele>
        <time>2014-01-12T15:02:46Z</time>
      </trkpt>
      <trkpt lat="44.91055" lon="0.52515">
        <ele>116.46</ele>
        <time>2014-01-12T15:02:58Z</time>
      </trkpt>
      <trkpt lat="44.91046" lon="0.525">
        <ele>117.42</ele>
        <time>2014-01-12T15:03:10Z</time>
      </trkpt>
      <trkpt lat="44.91041" lon="0.52496">
        <ele>116.46</ele>
        <time>2014-01-12T15:03:19Z</time>
      </trkpt>
      <trkpt lat="44.9103" lon="0.52481">
        <ele>116.94</ele>
        <time>2014-01-12T15:03:35Z</time>
      </trkpt>
      <trkpt lat="44.91025" lon="0.52475">
        <ele>117.42</ele>
        <time>2014-01-12T15:03:40Z</time>
      </trkpt>
      <trkpt lat="44.91019" lon="0.52466">
        <ele>117.9</ele>
        <time>2014-01-12T15:03:47Z</time>
      </trkpt>
      <trkpt lat="44.91012" lon="0.52459">
        <ele>116.94</ele>
        <time>2014-01-12T15:03:54Z</time>
      </trkpt>
      <trkpt lat="44.91" lon="0.52446">
        <ele>117.42</ele>
        <time>2014-01-12T15:04:07Z</time>
      </trkpt>
      <trkpt lat="44.90992" lon="0.52437">
        <ele>117.9</ele>
        <time>2014-01-12T15:04:16Z</time>
      </trkpt>
      <trkpt lat="44.90981" lon="0.52422">
        <ele>116.94</ele>
        <time>2014-01-12T15:04:29Z</time>
      </trkpt>
      <trkpt lat="44.9097" lon="0.52402">
        <ele>116.46</ele>
        <time>2014-01-12T15:04:43Z</time>
      </trkpt>
      <trkpt lat="44.90957" lon="0.52384">
        <ele>116.46</ele>
        <time>2014-01-12T15:04:58Z</time>
      </trkpt>
      <trkpt lat="44.90944" lon="0.52369">
        <ele>118.38</ele>
        <time>2014-01-12T15:05:12Z</time>
      </trkpt>
      <trkpt lat="44.90931" lon="0.52358">
        <ele>116.94</ele>
        <time>2014-01-12T15:05:24Z</time>
      </trkpt>
      <trkpt lat="44.90921" lon="0.52357">
        <ele>115.98</ele>
        <time>2014-01-12T15:05:34Z</time>
      </trkpt>
      <trkpt lat="44.9091" lon="0.52358">
        <ele>114.05</ele>
        <time>2014-01-12T15:05:43Z</time>
      </trkpt>
      <trkpt lat="44.90891" lon="0.5236">
        <ele>113.09</ele>
        <time>2014-01-12T15:05:59Z</time>
      </trkpt>
      <trkpt lat="44.90886" lon="0.5236">
        <ele>111.65</ele>
        <time>2014-01-12T15:06:06Z</time>
      </trkpt>
      <trkpt lat="44.90879" lon="0.52358">
        <ele>111.65</ele>
        <time>2014-01-12T15:06:12Z</time>
      </trkpt>
      <trkpt lat="44.90869" lon="0.52358">
        <ele>110.69</ele>
        <time>2014-01-12T15:06:20Z</time>
      </trkpt>
      <trkpt lat="44.9086" lon="0.52357">
        <ele>110.69</ele>
        <time>2014-01-12T15:06:28Z</time>
      </trkpt>
      <trkpt lat="44.90854" lon="0.52355">
        <ele>111.65</ele>
        <time>2014-01-12T15:06:33Z</time>
      </trkpt>
      <trkpt lat="44.90849" lon="0.52354">
        <ele>110.69</ele>
        <time>2014-01-12T15:06:37Z</time>
      </trkpt>
      <trkpt lat="44.90834" lon="0.52355">
        <ele>110.69</ele>
        <time>2014-01-12T15:06:50Z</time>
      </trkpt>
      <trkpt lat="44.90814" lon="0.52357">
        <ele>111.17</ele>
        <time>2014-01-12T15:07:06Z</time>
      </trkpt>
      <trkpt lat="44.90812" lon="0.5236">
        <ele>111.65</ele>
        <time>2014-01-12T15:07:13Z</time>
      </trkpt>
      <trkpt lat="44.90809" lon="0.52358">
        <ele>112.13</ele>
        <time>2014-01-12T15:07:18Z</time>
      </trkpt>
      <trkpt lat="44.90805" lon="0.52359">
        <ele>112.61</ele>
        <time>2014-01-12T15:07:21Z</time>
      </trkpt>
      <trkpt lat="44.90781" lon="0.52366">
        <ele>113.57</ele>
        <time>2014-01-12T15:07:38Z</time>
      </trkpt>
      <trkpt lat="44.90764" lon="0.52373">
        <ele>114.53</ele>
        <time>2014-01-12T15:07:52Z</time>
      </trkpt>
      <trkpt lat="44.90748" lon="0.5238">
        <ele>117.9</ele>
        <time>2014-01-12T15:08:07Z</time>
      </trkpt>
      <trkpt lat="44.90731" lon="0.52386">
        <ele>117.42</ele>
        <time>2014-01-12T15:08:22Z</time>
      </trkpt>
      <trkpt lat="44.90712" lon="0.52393">
        <ele>118.38</ele>
        <time>2014-01-12T15:08:38Z</time>
      </trkpt>
      <trkpt lat="44.90693" lon="0.52402">
        <ele>118.38</ele>
        <time>2014-01-12T15:08:55Z</time>
      </trkpt>
      <trkpt lat="44.90673" lon="0.5241">
        <ele>118.38</ele>
        <time>2014-01-12T15:09:13Z</time>
      </trkpt>
      <trkpt lat="44.90663" lon="0.52415">
        <ele>118.38</ele>
        <time>2014-01-12T15:09:23Z</time>
      </trkpt>
      <trkpt lat="44.90658" lon="0.52416">
        <ele>117.9</ele>
        <time>2014-01-12T15:09:27Z</time>
      </trkpt>
      <trkpt lat="44.90643" lon="0.52423">
        <ele>118.38</ele>
        <time>2014-01-12T15:09:41Z</time>
      </trkpt>
      <trkpt lat="44.90626" lon="0.52431">
        <ele>118.86</ele>
        <time>2014-01-12T15:09:56Z</time>
      </trkpt>
      <trkpt lat="44.90602" lon="0.52436">
        <ele>121.26</ele>
        <time>2014-01-12T15:10:15Z</time>
      </trkpt>
      <trkpt lat="44.90586" lon="0.52432">
        <ele>123.19</ele>
        <time>2014-01-12T15:10:30Z</time>
      </trkpt>
      <trkpt lat="44.90569" lon="0.52422">
        <ele>125.59</ele>
        <time>2014-01-12T15:10:47Z</time>
      </trkpt>
      <trkpt lat="44.90563" lon="0.52421">
        <ele>125.59</ele>
        <time>2014-01-12T15:10:53Z</time>
      </trkpt>
      <trkpt lat="44.90559" lon="0.52417">
        <ele>126.55</ele>
        <time>2014-01-12T15:10:58Z</time>
      </trkpt>
      <trkpt lat="44.90546" lon="0.52407">
        <ele>127.99</ele>
        <time>2014-01-12T15:11:12Z</time>
      </trkpt>
      <trkpt lat="44.90531" lon="0.52397">
        <ele>130.4</ele>
        <time>2014-01-12T15:11:26Z</time>
      </trkpt>
      <trkpt lat="44.90512" lon="0.52385">
        <ele>130.4</ele>
        <time>2014-01-12T15:11:45Z</time>
      </trkpt>
      <trkpt lat="44.90511" lon="0.52383">
        <ele>130.88</ele>
        <time>2014-01-12T15:11:47Z</time>
      </trkpt>
      <trkpt lat="44.90509" lon="0.52375">
        <ele>130.4</ele>
        <time>2014-01-12T15:11:52Z</time>
      </trkpt>
      <trkpt lat="44.90514" lon="0.52352">
        <ele>130.4</ele>
        <time>2014-01-12T15:12:07Z</time>
      </trkpt>
      <trkpt lat="44.90512" lon="0.52328">
        <ele>131.84</ele>
        <time>2014-01-12T15:12:23Z</time>
      </trkpt>
      <trkpt lat="44.9051" lon="0.52303">
        <ele>132.32</ele>
        <time>2014-01-12T15:12:39Z</time>
      </trkpt>
      <trkpt lat="44.90509" lon="0.5228">
        <ele>133.28</ele>
        <time>2014-01-12T15:12:54Z</time>
      </trkpt>
      <trkpt lat="44.90511" lon="0.52268">
        <ele>133.28</ele>
        <time>2014-01-12T15:13:02Z</time>
      </trkpt>
      <trkpt lat="44.90509" lon="0.5224">
        <ele>134.24</ele>
        <time>2014-01-12T15:13:18Z</time>
      </trkpt>
      <trkpt lat="44.90508" lon="0.52234">
        <ele>134.72</ele>
        <time>2014-01-12T15:13:22Z</time>
      </trkpt>
      <trkpt lat="44.90507" lon="0.52228">
        <ele>134.72</ele>
        <time>2014-01-12T15:13:26Z</time>
      </trkpt>
      <trkpt lat="44.90518" lon="0.52226">
        <ele>135.68</ele>
        <time>2014-01-12T15:13:40Z</time>
      </trkpt>
      <trkpt lat="44.90519" lon="0.52227">
        <ele>134.72</ele>
        <time>2014-01-12T15:13:42Z</time>
      </trkpt>
      <trkpt lat="44.90522" lon="0.52234">
        <ele>136.16</ele>
        <time>2014-01-12T15:13:53Z</time>
      </trkpt>
      <trkpt lat="44.90522" lon="0.52236">
        <ele>135.68</ele>
        <time>2014-01-12T15:13:55Z</time>
      </trkpt>
      <trkpt lat="44.90526" lon="0.52239">
        <ele>136.64</ele>
        <time>2014-01-12T15:14:00Z</time>
      </trkpt>
      <trkpt lat="44.90533" lon="0.52241">
        <ele>136.64</ele>
        <time>2014-01-12T15:14:06Z</time>
      </trkpt>
      <trkpt lat="44.90551" lon="0.52244">
        <ele>136.64</ele>
        <time>2014-01-12T15:14:24Z</time>
      </trkpt>
      <trkpt lat="44.90558" lon="0.52246">
        <ele>135.68</ele>
        <time>2014-01-12T15:14:34Z</time>
      </trkpt>
      <trkpt lat="44.90559" lon="0.5225">
        <ele>137.13</ele>
        <time>2014-01-12T15:14:48Z</time>
      </trkpt>
      <trkpt lat="44.90558" lon="0.5225">
        <ele>135.68</ele>
        <time>2014-01-12T15:14:50Z</time>
      </trkpt>
      <trkpt lat="44.90551" lon="0.52244">
        <ele>136.16</ele>
        <time>2014-01-12T15:15:05Z</time>
      </trkpt>
      <trkpt lat="44.90547" lon="0.52243">
        <ele>136.64</ele>
        <time>2014-01-12T15:16:07Z</time>
      </trkpt>
      <trkpt lat="44.90546" lon="0.52245">
        <ele>135.2</ele>
        <time>2014-01-12T15:16:25Z</time>
      </trkpt>
      <trkpt lat="44.90547" lon="0.52245">
        <ele>137.13</ele>
        <time>2014-01-12T15:16:27Z</time>
      </trkpt>
      <trkpt lat="44.90548" lon="0.52254">
        <ele>136.64</ele>
        <time>2014-01-12T15:16:54Z</time>
      </trkpt>
      <trkpt lat="44.90547" lon="0.52253">
        <ele>137.13</ele>
        <time>2014-01-12T15:18:30Z</time>
      </trkpt>
      <trkpt lat="44.90547" lon="0.52253">
        <ele>138.57</ele>
        <time>2014-01-12T15:21:03Z</time>
      </trkpt>
      <trkpt lat="44.90547" lon="0.52253">
        <ele>138.09</ele>
        <time>2014-01-12T15:21:05Z</time>
      </trkpt>
      <trkpt lat="44.90547" lon="0.52253">
        <ele>139.05</ele>
        <time>2014-01-12T15:21:42Z</time>
      </trkpt>
    </trkseg>
  </trk>
</gpx>